Darstellungsparameter: Aktuell verwendete Einstellungen:
Skalierung der Graphiken ... ?
xyx+y,   Skalierungsfaktor:      Skalierung: Modus: x, Faktor: 1
Darstellungszeitraum ... ?
Vom - - bis: - -   Zeitraum: 09.08.2019 - 13.08.2019
Min/Max/Avg-Anzeige ... ?
Zeige MMA aktuell
Zeige MMA Monat
Zeige MMA alles
Zeige --A aktuell
Zeige --A Monat
Zeige --A alles
Keine MMA-Anzeige
MMA:
Minimum Maximum Average (ber die Originaldaten)
MMA-Basis: 09.08.2019 - 13.08.2019
Quicknavigation für Darstellung... ?
Tage:      1T, 2T, 3T, 5T -1T -2T -3T -5T +1T +2T +3T +5T
Wochen: 1W, 2W, 3W -1W -2W -3W +1W +2W +3W
Monate: 1M, 3M, 6M -1M -3M -6M +1M +3M +6M
Jahre:    1J, 3J, 5J, 10J -1J -3J -5J -10J +1J +3J +5J +10J
Nutze für die Darstellung ... ?
Originaldaten oder Mittelwerte auf ...
Stundenbasis Tagesbasis Wochenbasis
Monatsbasis Jahresbasis      Datenbasis: Original-Daten
Darstellen als:
Statistik (Auto) Statistik J:M      Darstellung:
Zur Graphik,    zurück zur Übersicht aller Sensoren.
 
Tabellarische Datenbersicht: ?
 
Sensor: Nr:Datum:Temp:Feuchte:Taupunkt:
Aussen-T/F 1 09-08-2019 00:00:00 17.7 C 88 % 15.69 C
2 09-08-2019 00:05:00 17.6 C 88 % 15.59 C
3 09-08-2019 00:10:00 17.5 C 88 % 15.49 C
4 09-08-2019 00:15:00 17.4 C 89 % 15.57 C
5 09-08-2019 00:20:00 17.3 C 89 % 15.47 C
6 09-08-2019 00:25:00 17.2 C 89 % 15.37 C
7 09-08-2019 00:30:00 17.1 C 90 % 15.45 C
8 09-08-2019 00:35:00 17 C 90 % 15.35 C
9 09-08-2019 00:40:00 16.9 C 90 % 15.25 C
10 09-08-2019 00:45:00 16.8 C 90 % 15.15 C
11 09-08-2019 00:50:00 16.7 C 91 % 15.22 C
12 09-08-2019 00:55:00 16.7 C 91 % 15.22 C
13 09-08-2019 01:00:00 16.6 C 91 % 15.13 C
14 09-08-2019 01:05:00 16.6 C 91 % 15.13 C
15 09-08-2019 01:10:00 16.4 C 91 % 14.93 C
16 09-08-2019 01:15:00 16.4 C 91 % 14.93 C
17 09-08-2019 01:20:00 16.3 C 91 % 14.83 C
18 09-08-2019 01:25:00 16.3 C 91 % 14.83 C
19 09-08-2019 01:30:00 16.2 C 91 % 14.73 C
20 09-08-2019 01:35:00 16.2 C 91 % 14.73 C
21 09-08-2019 01:40:00 16.1 C 91 % 14.63 C
22 09-08-2019 01:45:00 16 C 92 % 14.7 C
23 09-08-2019 01:50:00 16 C 92 % 14.7 C
24 09-08-2019 01:55:00 16 C 92 % 14.7 C
25 09-08-2019 02:00:00 16 C 92 % 14.7 C
Sensor: Nr:Datum:Temp:Feuchte:Taupunkt:
Aussen-T/F 26 09-08-2019 02:05:00 16 C 92 % 14.7 C
27 09-08-2019 02:10:00 16 C 92 % 14.7 C
28 09-08-2019 02:15:00 16 C 92 % 14.7 C
29 09-08-2019 02:20:00 16 C 92 % 14.7 C
30 09-08-2019 02:25:00 15.9 C 92 % 14.6 C
31 09-08-2019 02:30:00 15.9 C 92 % 14.6 C
32 09-08-2019 02:35:00 15.9 C 92 % 14.6 C
33 09-08-2019 02:40:00 15.8 C 92 % 14.5 C
34 09-08-2019 02:45:00 15.7 C 92 % 14.4 C
35 09-08-2019 02:50:00 15.7 C 92 % 14.4 C
36 09-08-2019 02:55:00 15.6 C 92 % 14.31 C
37 09-08-2019 03:00:00 15.6 C 92 % 14.31 C
38 09-08-2019 03:05:00 15.4 C 92 % 14.11 C
39 09-08-2019 03:10:00 15.4 C 93 % 14.27 C
40 09-08-2019 03:15:00 15.3 C 92 % 14.01 C
41 09-08-2019 03:20:00 15.2 C 93 % 14.08 C
42 09-08-2019 03:25:00 15.2 C 93 % 14.08 C
43 09-08-2019 03:30:00 15.2 C 93 % 14.08 C
44 09-08-2019 03:35:00 15.1 C 93 % 13.98 C
45 09-08-2019 03:40:00 15.1 C 93 % 13.98 C
46 09-08-2019 03:45:00 15.1 C 93 % 13.98 C
47 09-08-2019 03:50:00 15 C 93 % 13.88 C
48 09-08-2019 03:55:00 15 C 93 % 13.88 C
49 09-08-2019 04:00:00 14.9 C 94 % 13.94 C
50 09-08-2019 04:05:00 14.9 C 93 % 13.78 C
Sensor: Nr:Datum:Temp:Feuchte:Taupunkt:
Aussen-T/F 51 09-08-2019 04:10:00 14.8 C 94 % 13.84 C
52 09-08-2019 04:15:00 14.8 C 93 % 13.68 C
53 09-08-2019 04:20:00 14.7 C 93 % 13.58 C
54 09-08-2019 04:25:00 14.6 C 93 % 13.48 C
55 09-08-2019 04:30:00 14.6 C 94 % 13.65 C
56 09-08-2019 04:35:00 14.7 C 94 % 13.74 C
57 09-08-2019 04:40:00 14.7 C 94 % 13.74 C
58 09-08-2019 04:45:00 14.7 C 94 % 13.74 C
59 09-08-2019 04:50:00 14.7 C 94 % 13.74 C
60 09-08-2019 04:55:00 14.6 C 94 % 13.65 C
61 09-08-2019 05:00:00 14.6 C 94 % 13.65 C
62 09-08-2019 05:05:00 14.5 C 94 % 13.55 C
63 09-08-2019 05:10:00 14.5 C 94 % 13.55 C
64 09-08-2019 05:15:00 14.5 C 94 % 13.55 C
65 09-08-2019 05:20:00 14.4 C 94 % 13.45 C
66 09-08-2019 05:25:00 14.4 C 94 % 13.45 C
67 09-08-2019 05:30:00 14.4 C 94 % 13.45 C
68 09-08-2019 05:35:00 14.4 C 94 % 13.45 C
69 09-08-2019 05:40:00 14.4 C 94 % 13.45 C
70 09-08-2019 05:45:00 14.4 C 94 % 13.45 C
71 09-08-2019 05:50:00 14.4 C 94 % 13.45 C
72 09-08-2019 05:55:00 14.4 C 95 % 13.61 C
73 09-08-2019 06:00:00 14.4 C 95 % 13.61 C
74 09-08-2019 06:05:00 14.4 C 95 % 13.61 C
75 09-08-2019 06:10:00 14.4 C 95 % 13.61 C
Sensor: Nr:Datum:Temp:Feuchte:Taupunkt:
Aussen-T/F 76 09-08-2019 06:15:00 14.5 C 95 % 13.71 C
77 09-08-2019 06:20:00 14.5 C 95 % 13.71 C
78 09-08-2019 06:25:00 14.6 C 95 % 13.81 C
79 09-08-2019 06:30:00 14.6 C 95 % 13.81 C
80 09-08-2019 06:35:00 14.6 C 95 % 13.81 C
81 09-08-2019 06:40:00 14.6 C 95 % 13.81 C
82 09-08-2019 06:45:00 14.7 C 95 % 13.91 C
83 09-08-2019 06:50:00 14.7 C 95 % 13.91 C
84 09-08-2019 06:55:00 14.8 C 95 % 14.01 C
85 09-08-2019 07:00:00 14.8 C 95 % 14.01 C
86 09-08-2019 07:05:00 15 C 95 % 14.21 C
87 09-08-2019 07:10:00 15.1 C 96 % 14.47 C
88 09-08-2019 07:15:00 15.2 C 96 % 14.57 C
89 09-08-2019 07:20:00 15.3 C 96 % 14.67 C
90 09-08-2019 07:25:00 15.4 C 96 % 14.77 C
91 09-08-2019 07:30:00 15.5 C 95 % 14.7 C
92 09-08-2019 07:35:00 15.6 C 95 % 14.8 C
93 09-08-2019 07:40:00 15.6 C 95 % 14.8 C
94 09-08-2019 07:45:00 15.7 C 95 % 14.9 C
95 09-08-2019 07:50:00 15.8 C 95 % 15 C
96 09-08-2019 07:55:00 15.9 C 95 % 15.1 C
97 09-08-2019 08:00:00 15.9 C 94 % 14.94 C
98 09-08-2019 08:05:00 15.9 C 94 % 14.94 C
99 09-08-2019 08:10:00 16.1 C 94 % 15.13 C
100 09-08-2019 08:15:00 16.2 C 94 % 15.23 C
Sensor: Nr:Datum:Temp:Feuchte:Taupunkt:
Aussen-T/F 101 09-08-2019 08:20:00 16.2 C 94 % 15.23 C
102 09-08-2019 08:25:00 16.4 C 94 % 15.43 C
103 09-08-2019 08:30:00 16.5 C 93 % 15.36 C
104 09-08-2019 08:35:00 16.6 C 93 % 15.46 C
105 09-08-2019 08:40:00 16.7 C 92 % 15.39 C
106 09-08-2019 08:45:00 16.8 C 92 % 15.49 C
107 09-08-2019 08:50:00 16.9 C 92 % 15.59 C
108 09-08-2019 08:55:00 17.1 C 92 % 15.79 C
109 09-08-2019 09:00:00 17.2 C 91 % 15.72 C
110 09-08-2019 09:05:00 17.4 C 91 % 15.92 C
111 09-08-2019 09:10:00 17.6 C 91 % 16.11 C
112 09-08-2019 09:15:00 17.7 C 89 % 15.86 C
113 09-08-2019 09:20:00 17.9 C 89 % 16.06 C
114 09-08-2019 09:25:00 18.2 C 88 % 16.18 C
115 09-08-2019 09:30:00 18.4 C 87 % 16.2 C
116 09-08-2019 09:35:00 18.6 C 87 % 16.39 C
117 09-08-2019 09:40:00 18.8 C 86 % 16.41 C
118 09-08-2019 09:45:00 18.9 C 86 % 16.51 C
119 09-08-2019 09:50:00 19.2 C 85 % 16.62 C
120 09-08-2019 09:55:00 19.3 C 84 % 16.53 C
121 09-08-2019 10:00:00 19.5 C 82 % 16.35 C
122 09-08-2019 10:05:00 19.7 C 82 % 16.54 C
123 09-08-2019 10:10:00 19.9 C 82 % 16.74 C
124 09-08-2019 10:15:00 20.1 C 82 % 16.93 C
125 09-08-2019 10:20:00 20.3 C 81 % 16.93 C
Sensor: Nr:Datum:Temp:Feuchte:Taupunkt:
Aussen-T/F 126 09-08-2019 10:25:00 20.5 C 82 % 17.32 C
127 09-08-2019 10:30:00 20.7 C 80 % 17.13 C
128 09-08-2019 10:35:00 20.9 C 80 % 17.32 C
129 09-08-2019 10:40:00 21.1 C 79 % 17.32 C
130 09-08-2019 10:45:00 21.3 C 81 % 17.91 C
131 09-08-2019 10:50:00 21.6 C 79 % 17.8 C
132 09-08-2019 10:55:00 21.7 C 79 % 17.9 C
133 09-08-2019 11:00:00 21.9 C 78 % 17.89 C
134 09-08-2019 11:05:00 22.2 C 77 % 17.98 C
135 09-08-2019 11:10:00 22.6 C 75 % 17.94 C
136 09-08-2019 11:15:00 23 C 76 % 18.54 C
137 09-08-2019 11:20:00 23.4 C 74 % 18.5 C
138 09-08-2019 11:25:00 23.7 C 70 % 17.9 C
139 09-08-2019 11:30:00 24.2 C 70 % 18.38 C
140 09-08-2019 11:35:00 24.5 C 68 % 18.2 C
141 09-08-2019 11:40:00 24.8 C 69 % 18.72 C
142 09-08-2019 11:45:00 25 C 67 % 18.44 C
143 09-08-2019 11:50:00 25.1 C 66 % 18.3 C
144 09-08-2019 11:55:00 25.2 C 69 % 19.11 C
145 09-08-2019 12:00:00 25.1 C 66 % 18.3 C
146 09-08-2019 12:05:00 25.2 C 68 % 18.87 C
147 09-08-2019 12:10:00 25.2 C 68 % 18.87 C
148 09-08-2019 12:15:00 25.3 C 66 % 18.49 C
149 09-08-2019 12:20:00 25.2 C 63 % 17.65 C
150 09-08-2019 12:25:00 25.3 C 71 % 19.66 C
Sensor: Nr:Datum:Temp:Feuchte:Taupunkt:
Aussen-T/F 151 09-08-2019 12:30:00 25.3 C 64 % 18 C
152 09-08-2019 12:35:00 25.3 C 63 % 17.75 C
153 09-08-2019 12:40:00 25.3 C 64 % 18 C
154 09-08-2019 12:45:00 25.3 C 64 % 18 C
155 09-08-2019 12:50:00 25.4 C 70 % 19.53 C
156 09-08-2019 12:55:00 25.3 C 63 % 17.75 C
157 09-08-2019 13:00:00 25.3 C 63 % 17.75 C
158 09-08-2019 13:05:00 25.3 C 69 % 19.2 C
159 09-08-2019 13:10:00 25.2 C 63 % 17.65 C
160 09-08-2019 13:15:00 25.2 C 72 % 19.79 C
161 09-08-2019 13:20:00 25.1 C 68 % 18.78 C
162 09-08-2019 13:25:00 25.1 C 69 % 19.01 C
163 09-08-2019 13:30:00 25.2 C 68 % 18.87 C
164 09-08-2019 13:35:00 25.2 C 63 % 17.65 C
165 09-08-2019 13:40:00 25.3 C 65 % 18.25 C
166 09-08-2019 13:45:00 25.4 C 64 % 18.09 C
167 09-08-2019 13:50:00 25.4 C 64 % 18.09 C
168 09-08-2019 13:55:00 25.6 C 69 % 19.49 C
169 09-08-2019 14:00:00 25.6 C 68 % 19.25 C
170 09-08-2019 14:05:00 25.5 C 69 % 19.39 C
171 09-08-2019 14:10:00 25.4 C 67 % 18.82 C
172 09-08-2019 14:15:00 25.4 C 73 % 20.21 C
173 09-08-2019 14:20:00 25.2 C 76 % 20.67 C
174 09-08-2019 14:25:00 25 C 78 % 20.89 C
175 09-08-2019 14:30:00 24.8 C 80 % 21.11 C
Sensor: Nr:Datum:Temp:Feuchte:Taupunkt:
Aussen-T/F 176 09-08-2019 14:35:00 24.4 C 82 % 21.12 C
177 09-08-2019 14:40:00 24.2 C 83 % 21.13 C
178 09-08-2019 14:45:00 24 C 83 % 20.93 C
179 09-08-2019 14:50:00 23.8 C 84 % 20.93 C
180 09-08-2019 14:55:00 23.7 C 85 % 21.03 C
181 09-08-2019 15:00:00 23.4 C 85 % 20.73 C
182 09-08-2019 15:05:00 23.2 C 86 % 20.73 C
183 09-08-2019 15:10:00 23.1 C 88 % 21 C
184 09-08-2019 15:15:00 23.3 C 89 % 21.38 C
185 09-08-2019 15:20:00 23.7 C 85 % 21.03 C
186 09-08-2019 15:25:00 24 C 83 % 20.93 C
187 09-08-2019 15:30:00 24.3 C 83 % 21.22 C
188 09-08-2019 15:35:00 24.7 C 81 % 21.22 C
189 09-08-2019 15:40:00 25.1 C 78 % 20.99 C
190 09-08-2019 15:45:00 25.6 C 78 % 21.48 C
191 09-08-2019 15:50:00 26.1 C 76 % 21.53 C
192 09-08-2019 15:55:00 26.7 C 73 % 21.45 C
193 09-08-2019 16:00:00 27.2 C 72 % 21.71 C
194 09-08-2019 16:05:00 27.4 C 68 % 20.97 C
195 09-08-2019 16:10:00 27.6 C 66 % 20.67 C
196 09-08-2019 16:15:00 27.4 C 67 % 20.73 C
197 09-08-2019 16:20:00 27.4 C 68 % 20.97 C
198 09-08-2019 16:25:00 27.3 C 68 % 20.87 C
199 09-08-2019 16:30:00 27.3 C 71 % 21.58 C
200 09-08-2019 16:35:00 27.2 C 71 % 21.48 C
Sensor: Nr:Datum:Temp:Feuchte:Taupunkt:
Aussen-T/F 201 09-08-2019 16:40:00 27.1 C 68 % 20.68 C
202 09-08-2019 16:45:00 27 C 70 % 21.06 C
203 09-08-2019 16:50:00 27.1 C 75 % 22.28 C
204 09-08-2019 16:55:00 27 C 75 % 22.19 C
205 09-08-2019 17:00:00 26.9 C 78 % 22.73 C
206 09-08-2019 17:05:00 26.7 C 78 % 22.54 C
207 09-08-2019 17:10:00 26.4 C 79 % 22.46 C
208 09-08-2019 17:15:00 26.2 C 80 % 22.47 C
209 09-08-2019 17:20:00 25.8 C 80 % 22.08 C
210 09-08-2019 17:25:00 25.5 C 81 % 22 C
211 09-08-2019 17:30:00 25.2 C 81 % 21.7 C
212 09-08-2019 17:35:00 24.9 C 82 % 21.61 C
213 09-08-2019 17:40:00 24.8 C 83 % 21.71 C
214 09-08-2019 17:45:00 24.6 C 85 % 21.91 C
215 09-08-2019 17:50:00 24.3 C 85 % 21.61 C
216 09-08-2019 17:55:00 24.1 C 86 % 21.61 C
217 09-08-2019 18:00:00 23.8 C 87 % 21.5 C
218 09-08-2019 18:05:00 23.6 C 87 % 21.31 C
219 09-08-2019 18:10:00 23.4 C 88 % 21.3 C
220 09-08-2019 18:15:00 23.2 C 88 % 21.1 C
221 09-08-2019 18:20:00 23.1 C 88 % 21 C
222 09-08-2019 18:25:00 22.9 C 89 % 20.99 C
223 09-08-2019 18:30:00 22.7 C 89 % 20.79 C
224 09-08-2019 18:35:00 22.4 C 89 % 20.5 C
225 09-08-2019 18:40:00 22.3 C 90 % 20.58 C
Sensor: Nr:Datum:Temp:Feuchte:Taupunkt:
Aussen-T/F 226 09-08-2019 18:45:00 22.1 C 90 % 20.38 C
227 09-08-2019 18:50:00 22 C 91 % 20.46 C
228 09-08-2019 18:55:00 21.9 C 91 % 20.36 C
229 09-08-2019 19:00:00 21.8 C 92 % 20.44 C
230 09-08-2019 19:05:00 21.8 C 92 % 20.44 C
231 09-08-2019 19:10:00 21.7 C 92 % 20.34 C
232 09-08-2019 19:15:00 21.7 C 93 % 20.52 C
233 09-08-2019 19:20:00 21.7 C 93 % 20.52 C
234 09-08-2019 19:25:00 21.7 C 94 % 20.69 C
235 09-08-2019 19:30:00 21.7 C 94 % 20.69 C
236 09-08-2019 19:35:00 21.6 C 94 % 20.59 C
237 09-08-2019 19:40:00 21.5 C 94 % 20.49 C
238 09-08-2019 19:45:00 21.2 C 93 % 20.02 C
239 09-08-2019 19:50:00 20.9 C 93 % 19.72 C
240 09-08-2019 19:55:00 20.7 C 93 % 19.53 C
241 09-08-2019 20:00:00 20.4 C 93 % 19.23 C
242 09-08-2019 20:05:00 20 C 93 % 18.83 C
243 09-08-2019 20:10:00 19.8 C 93 % 18.63 C
244 09-08-2019 20:15:00 19.7 C 94 % 18.71 C
245 09-08-2019 20:20:00 19.6 C 94 % 18.61 C
246 09-08-2019 20:25:00 19.6 C 94 % 18.61 C
247 09-08-2019 20:30:00 19.5 C 94 % 18.51 C
248 09-08-2019 20:35:00 19.4 C 94 % 18.41 C
249 09-08-2019 20:40:00 19.4 C 95 % 18.58 C
250 09-08-2019 20:45:00 19.4 C 95 % 18.58 C
Sensor: Nr:Datum:Temp:Feuchte:Taupunkt:
Aussen-T/F 251 09-08-2019 20:50:00 19.4 C 95 % 18.58 C
252 09-08-2019 20:55:00 19.4 C 95 % 18.58 C
253 09-08-2019 21:00:00 19.3 C 95 % 18.48 C
254 09-08-2019 21:05:00 19.3 C 95 % 18.48 C
255 09-08-2019 21:10:00 19.3 C 95 % 18.48 C
256 09-08-2019 21:15:00 19.3 C 95 % 18.48 C
257 09-08-2019 21:20:00 19.3 C 95 % 18.48 C
258 09-08-2019 21:25:00 19.3 C 95 % 18.48 C
259 09-08-2019 21:30:00 19.3 C 96 % 18.65 C
260 09-08-2019 21:35:00 19.3 C 96 % 18.65 C
261 09-08-2019 21:40:00 19.4 C 96 % 18.75 C
262 09-08-2019 21:45:00 19.4 C 96 % 18.75 C
263 09-08-2019 21:50:00 19.3 C 96 % 18.65 C
264 09-08-2019 21:55:00 19.3 C 96 % 18.65 C
265 09-08-2019 22:00:00 19.4 C 96 % 18.75 C
266 09-08-2019 22:05:00 19.4 C 96 % 18.75 C
267 09-08-2019 22:10:00 19.4 C 96 % 18.75 C
268 09-08-2019 22:15:00 19.4 C 96 % 18.75 C
269 09-08-2019 22:20:00 19.4 C 96 % 18.75 C
270 09-08-2019 22:25:00 19.4 C 96 % 18.75 C
271 09-08-2019 22:30:00 19.3 C 96 % 18.65 C
272 09-08-2019 22:35:00 19.3 C 96 % 18.65 C
273 09-08-2019 22:40:00 19.2 C 96 % 18.55 C
274 09-08-2019 22:45:00 19.2 C 96 % 18.55 C
275 09-08-2019 22:50:00 19.2 C 96 % 18.55 C
Sensor: Nr:Datum:Temp:Feuchte:Taupunkt:
Aussen-T/F 276 09-08-2019 22:55:00 19.1 C 96 % 18.45 C
277 09-08-2019 23:00:00 19.1 C 96 % 18.45 C
278 09-08-2019 23:05:00 19.1 C 96 % 18.45 C
279 09-08-2019 23:10:00 19.1 C 96 % 18.45 C
280 09-08-2019 23:15:00 19 C 96 % 18.35 C
281 09-08-2019 23:20:00 18.9 C 96 % 18.25 C
282 09-08-2019 23:25:00 18.8 C 96 % 18.15 C
283 09-08-2019 23:30:00 18.8 C 96 % 18.15 C
284 09-08-2019 23:35:00 18.8 C 96 % 18.15 C
285 09-08-2019 23:40:00 18.7 C 96 % 18.05 C
286 09-08-2019 23:45:00 18.7 C 96 % 18.05 C
287 09-08-2019 23:50:00 18.7 C 96 % 18.05 C
288 09-08-2019 23:55:00 18.7 C 96 % 18.05 C
289 10-08-2019 00:00:00 18.6 C 96 % 17.95 C
290 10-08-2019 00:05:00 18.6 C 96 % 17.95 C
291 10-08-2019 00:10:00 18.6 C 96 % 17.95 C
292 10-08-2019 00:15:00 18.7 C 96 % 18.05 C
293 10-08-2019 00:20:00 18.8 C 96 % 18.15 C
294 10-08-2019 00:25:00 18.8 C 97 % 18.31 C
295 10-08-2019 00:30:00 18.8 C 97 % 18.31 C
296 10-08-2019 00:35:00 18.8 C 97 % 18.31 C
297 10-08-2019 00:40:00 18.9 C 97 % 18.41 C
298 10-08-2019 00:45:00 18.9 C 97 % 18.41 C
299 10-08-2019 00:50:00 18.9 C 97 % 18.41 C
300 10-08-2019 00:55:00 18.9 C 97 % 18.41 C
Sensor: Nr:Datum:Temp:Feuchte:Taupunkt:
Aussen-T/F 301 10-08-2019 01:00:00 18.9 C 97 % 18.41 C
302 10-08-2019 01:05:00 18.9 C 97 % 18.41 C
303 10-08-2019 01:10:00 18.9 C 97 % 18.41 C
304 10-08-2019 01:15:00 18.8 C 97 % 18.31 C
305 10-08-2019 01:20:00 18.8 C 97 % 18.31 C
306 10-08-2019 01:25:00 18.7 C 96 % 18.05 C
307 10-08-2019 01:30:00 18.7 C 97 % 18.21 C
308 10-08-2019 01:35:00 18.7 C 97 % 18.21 C
309 10-08-2019 01:40:00 18.6 C 97 % 18.11 C
310 10-08-2019 01:45:00 18.6 C 97 % 18.11 C
311 10-08-2019 01:50:00 18.6 C 97 % 18.11 C
312 10-08-2019 01:55:00 18.6 C 97 % 18.11 C
313 10-08-2019 02:00:00 18.6 C 97 % 18.11 C
314 10-08-2019 02:05:00 18.7 C 97 % 18.21 C
315 10-08-2019 02:10:00 18.6 C 97 % 18.11 C
316 10-08-2019 02:15:00 18.6 C 97 % 18.11 C
317 10-08-2019 02:20:00 18.5 C 97 % 18.01 C
318 10-08-2019 02:25:00 18.4 C 97 % 17.91 C
319 10-08-2019 02:30:00 18.4 C 97 % 17.91 C
320 10-08-2019 02:35:00 18.4 C 97 % 17.91 C
321 10-08-2019 02:40:00 18.5 C 97 % 18.01 C
322 10-08-2019 02:45:00 18.5 C 97 % 18.01 C
323 10-08-2019 02:50:00 18.5 C 97 % 18.01 C
324 10-08-2019 02:55:00 18.4 C 97 % 17.91 C
325 10-08-2019 03:00:00 18.4 C 97 % 17.91 C
Sensor: Nr:Datum:Temp:Feuchte:Taupunkt:
Aussen-T/F 326 10-08-2019 03:05:00 18.4 C 97 % 17.91 C
327 10-08-2019 03:10:00 18.3 C 97 % 17.82 C
328 10-08-2019 03:15:00 18.3 C 97 % 17.82 C
329 10-08-2019 03:20:00 18.3 C 97 % 17.82 C
330 10-08-2019 03:25:00 18.2 C 97 % 17.72 C
331 10-08-2019 03:30:00 18.2 C 97 % 17.72 C
332 10-08-2019 03:35:00 18.2 C 97 % 17.72 C
333 10-08-2019 03:40:00 18.3 C 97 % 17.82 C
334 10-08-2019 03:45:00 18.3 C 97 % 17.82 C
335 10-08-2019 03:50:00 18.3 C 97 % 17.82 C
336 10-08-2019 03:55:00 18.3 C 97 % 17.82 C
337 10-08-2019 04:00:00 18.3 C 97 % 17.82 C
338 10-08-2019 04:05:00 18.3 C 97 % 17.82 C
339 10-08-2019 04:10:00 18.4 C 97 % 17.91 C
340 10-08-2019 04:15:00 18.4 C 97 % 17.91 C
341 10-08-2019 04:20:00 18.3 C 97 % 17.82 C
342 10-08-2019 04:25:00 18.2 C 97 % 17.72 C
343 10-08-2019 04:30:00 18.1 C 97 % 17.62 C
344 10-08-2019 04:35:00 18 C 97 % 17.52 C
345 10-08-2019 04:40:00 17.9 C 97 % 17.42 C
346 10-08-2019 04:45:00 17.9 C 97 % 17.42 C
347 10-08-2019 04:50:00 17.8 C 97 % 17.32 C
348 10-08-2019 04:55:00 17.8 C 97 % 17.32 C
349 10-08-2019 05:00:00 17.7 C 97 % 17.22 C
350 10-08-2019 05:05:00 17.6 C 97 % 17.12 C
Sensor: Nr:Datum:Temp:Feuchte:Taupunkt:
Aussen-T/F 351 10-08-2019 05:10:00 17.6 C 97 % 17.12 C
352 10-08-2019 05:15:00 17.6 C 97 % 17.12 C
353 10-08-2019 05:20:00 17.5 C 97 % 17.02 C
354 10-08-2019 05:25:00 17.5 C 97 % 17.02 C
355 10-08-2019 05:30:00 17.5 C 97 % 17.02 C
356 10-08-2019 05:35:00 17.5 C 97 % 17.02 C
357 10-08-2019 05:40:00 17.5 C 97 % 17.02 C
358 10-08-2019 05:45:00 17.5 C 97 % 17.02 C
359 10-08-2019 05:50:00 17.5 C 97 % 17.02 C
360 10-08-2019 05:55:00 17.4 C 97 % 16.92 C
361 10-08-2019 06:00:00 17.4 C 97 % 16.92 C
362 10-08-2019 06:05:00 17.5 C 97 % 17.02 C
363 10-08-2019 06:10:00 17.5 C 97 % 17.02 C
364 10-08-2019 06:15:00 17.5 C 97 % 17.02 C
365 10-08-2019 06:20:00 17.5 C 97 % 17.02 C
366 10-08-2019 06:25:00 17.5 C 97 % 17.02 C
367 10-08-2019 06:30:00 17.5 C 97 % 17.02 C
368 10-08-2019 06:35:00 17.5 C 97 % 17.02 C
369 10-08-2019 06:40:00 17.4 C 97 % 16.92 C
370 10-08-2019 06:45:00 17.4 C 97 % 16.92 C
371 10-08-2019 06:50:00 17.4 C 97 % 16.92 C
372 10-08-2019 06:55:00 17.3 C 97 % 16.82 C
373 10-08-2019 07:00:00 17.3 C 97 % 16.82 C
374 10-08-2019 07:05:00 17.3 C 97 % 16.82 C
375 10-08-2019 07:10:00 17.3 C 97 % 16.82 C
Sensor: Nr:Datum:Temp:Feuchte:Taupunkt:
Aussen-T/F 376 10-08-2019 07:15:00 17.3 C 97 % 16.82 C
377 10-08-2019 07:20:00 17.3 C 97 % 16.82 C
378 10-08-2019 07:25:00 17.3 C 97 % 16.82 C
379 10-08-2019 07:30:00 17.3 C 97 % 16.82 C
380 10-08-2019 07:35:00 17.3 C 97 % 16.82 C
381 10-08-2019 07:40:00 17.3 C 97 % 16.82 C
382 10-08-2019 07:45:00 17.4 C 97 % 16.92 C
383 10-08-2019 07:50:00 17.4 C 97 % 16.92 C
384 10-08-2019 07:55:00 17.5 C 97 % 17.02 C
385 10-08-2019 08:00:00 17.6 C 97 % 17.12 C
386 10-08-2019 08:05:00 17.4 C 97 % 16.92 C
387 10-08-2019 08:10:00 17.2 C 97 % 16.72 C
388 10-08-2019 08:15:00 17.1 C 96 % 16.46 C
389 10-08-2019 08:20:00 17.2 C 96 % 16.56 C
390 10-08-2019 08:25:00 17.2 C 96 % 16.56 C
391 10-08-2019 08:30:00 17.2 C 96 % 16.56 C
392 10-08-2019 08:35:00 17.3 C 95 % 16.49 C
393 10-08-2019 08:40:00 17.4 C 94 % 16.42 C
394 10-08-2019 08:45:00 17.7 C 93 % 16.55 C
395 10-08-2019 08:50:00 17.8 C 92 % 16.48 C
396 10-08-2019 08:55:00 17.9 C 92 % 16.58 C
397 10-08-2019 09:00:00 18.2 C 90 % 16.53 C
398 10-08-2019 09:05:00 18.6 C 89 % 16.75 C
399 10-08-2019 09:10:00 18.8 C 89 % 16.95 C
400 10-08-2019 09:15:00 18.9 C 87 % 16.69 C
Sensor: Nr:Datum:Temp:Feuchte:Taupunkt:
Aussen-T/F 401 10-08-2019 09:20:00 19 C 86 % 16.6 C
402 10-08-2019 09:25:00 19.1 C 85 % 16.52 C
403 10-08-2019 09:30:00 19.2 C 86 % 16.8 C
404 10-08-2019 09:35:00 19.3 C 85 % 16.72 C
405 10-08-2019 09:40:00 19.4 C 85 % 16.81 C
406 10-08-2019 09:45:00 19.6 C 84 % 16.82 C
407 10-08-2019 09:50:00 19.7 C 83 % 16.73 C
408 10-08-2019 09:55:00 19.7 C 83 % 16.73 C
409 10-08-2019 10:00:00 19.8 C 82 % 16.64 C
410 10-08-2019 10:05:00 19.9 C 82 % 16.74 C
411 10-08-2019 10:10:00 20.1 C 81 % 16.74 C
412 10-08-2019 10:15:00 20.2 C 81 % 16.84 C
413 10-08-2019 10:20:00 20.2 C 80 % 16.64 C
414 10-08-2019 10:25:00 20.3 C 80 % 16.74 C
415 10-08-2019 10:30:00 20.3 C 80 % 16.74 C
416 10-08-2019 10:35:00 20.4 C 80 % 16.83 C
417 10-08-2019 10:40:00 20.6 C 80 % 17.03 C
418 10-08-2019 10:45:00 20.7 C 77 % 16.52 C
419 10-08-2019 10:50:00 20.8 C 75 % 16.21 C
420 10-08-2019 10:55:00 21.1 C 76 % 16.7 C
421 10-08-2019 11:00:00 21.3 C 76 % 16.9 C
422 10-08-2019 11:05:00 21.6 C 78 % 17.6 C
423 10-08-2019 11:10:00 21.6 C 74 % 16.77 C
424 10-08-2019 11:15:00 21.6 C 73 % 16.55 C
425 10-08-2019 11:20:00 21.4 C 73 % 16.36 C
Sensor: Nr:Datum:Temp:Feuchte:Taupunkt:
Aussen-T/F 426 10-08-2019 11:25:00 21.2 C 74 % 16.38 C
427 10-08-2019 11:30:00 21.2 C 74 % 16.38 C
428 10-08-2019 11:35:00 21.3 C 75 % 16.69 C
429 10-08-2019 11:40:00 21.4 C 74 % 16.57 C
430 10-08-2019 11:45:00 21.5 C 73 % 16.46 C
431 10-08-2019 11:50:00 21.5 C 74 % 16.67 C
432 10-08-2019 11:55:00 21.6 C 74 % 16.77 C
433 10-08-2019 12:00:00 21.6 C 72 % 16.34 C
434 10-08-2019 12:05:00 21.7 C 72 % 16.43 C
435 10-08-2019 12:10:00 21.8 C 72 % 16.53 C
436 10-08-2019 12:15:00 22.1 C 72 % 16.82 C
437 10-08-2019 12:20:00 22.3 C 70 % 16.56 C
438 10-08-2019 12:25:00 22.4 C 68 % 16.2 C
439 10-08-2019 12:30:00 22.6 C 69 % 16.62 C
440 10-08-2019 12:35:00 22.7 C 68 % 16.49 C
441 10-08-2019 12:40:00 22.8 C 67 % 16.35 C
442 10-08-2019 12:45:00 22.9 C 67 % 16.45 C
443 10-08-2019 12:50:00 22.9 C 65 % 15.97 C
444 10-08-2019 12:55:00 22.8 C 66 % 16.12 C
445 10-08-2019 13:00:00 22.8 C 65 % 15.88 C
446 10-08-2019 13:05:00 22.9 C 65 % 15.97 C
447 10-08-2019 13:10:00 23.1 C 63 % 15.67 C
448 10-08-2019 13:15:00 23.3 C 64 % 16.11 C
449 10-08-2019 13:20:00 23.4 C 62 % 15.71 C
450 10-08-2019 13:25:00 23.4 C 64 % 16.2 C
Sensor: Nr:Datum:Temp:Feuchte:Taupunkt:
Aussen-T/F 451 10-08-2019 13:30:00 23.4 C 64 % 16.2 C
452 10-08-2019 13:35:00 23.4 C 63 % 15.96 C
453 10-08-2019 13:40:00 23.6 C 63 % 16.14 C
454 10-08-2019 13:45:00 23.5 C 62 % 15.8 C
455 10-08-2019 13:50:00 23.3 C 63 % 15.86 C
456 10-08-2019 13:55:00 23.1 C 63 % 15.67 C
457 10-08-2019 14:00:00 23.1 C 63 % 15.67 C
458 10-08-2019 14:05:00 23.4 C 62 % 15.71 C
459 10-08-2019 14:10:00 23.6 C 62 % 15.89 C
460 10-08-2019 14:15:00 23.7 C 61 % 15.73 C
461 10-08-2019 14:20:00 23.8 C 62 % 16.08 C
462 10-08-2019 14:25:00 24 C 59 % 15.5 C
463 10-08-2019 14:30:00 23.9 C 62 % 16.18 C
464 10-08-2019 14:35:00 23.8 C 62 % 16.08 C
465 10-08-2019 14:40:00 24 C 60 % 15.76 C
466 10-08-2019 14:45:00 24.1 C 60 % 15.85 C
467 10-08-2019 14:50:00 24.2 C 58 % 15.42 C
468 10-08-2019 14:55:00 24.4 C 58 % 15.6 C
469 10-08-2019 15:00:00 24.6 C 57 % 15.52 C
470 10-08-2019 15:05:00 24.6 C 55 % 14.96 C
471 10-08-2019 15:10:00 24.6 C 57 % 15.52 C
472 10-08-2019 15:15:00 24.8 C 57 % 15.7 C
473 10-08-2019 15:20:00 25.1 C 55 % 15.43 C
474 10-08-2019 15:25:00 24.9 C 55 % 15.24 C
475 10-08-2019 15:30:00 24.7 C 56 % 15.33 C
Sensor: Nr:Datum:Temp:Feuchte:Taupunkt:
Aussen-T/F 476 10-08-2019 15:35:00 24.8 C 59 % 16.24 C
477 10-08-2019 15:40:00 25.2 C 55 % 15.52 C
478 10-08-2019 15:45:00 25.5 C 54 % 15.51 C
479 10-08-2019 15:50:00 25.7 C 52 % 15.11 C
480 10-08-2019 15:55:00 25.4 C 53 % 15.13 C
481 10-08-2019 16:00:00 25.1 C 55 % 15.43 C
482 10-08-2019 16:05:00 25.2 C 53 % 14.94 C
483 10-08-2019 16:10:00 24.9 C 52 % 14.37 C
484 10-08-2019 16:15:00 24.8 C 54 % 14.86 C
485 10-08-2019 16:20:00 25.3 C 53 % 15.03 C
486 10-08-2019 16:25:00 25.6 C 55 % 15.89 C
487 10-08-2019 16:30:00 25.7 C 52 % 15.11 C
488 10-08-2019 16:35:00 25.4 C 52 % 14.83 C
489 10-08-2019 16:40:00 25.1 C 55 % 15.43 C
490 10-08-2019 16:45:00 25.1 C 53 % 14.85 C
491 10-08-2019 16:50:00 25.3 C 58 % 16.44 C
492 10-08-2019 16:55:00 25.4 C 50 % 14.22 C
493 10-08-2019 17:00:00 25.8 C 52 % 15.2 C
494 10-08-2019 17:05:00 25.8 C 49 % 14.28 C
495 10-08-2019 17:10:00 25.7 C 49 % 14.19 C
496 10-08-2019 17:15:00 25.9 C 50 % 14.68 C
497 10-08-2019 17:20:00 26.2 C 51 % 15.27 C
498 10-08-2019 17:25:00 26.4 C 48 % 14.51 C
499 10-08-2019 17:30:00 26.6 C 50 % 15.32 C
500 10-08-2019 17:35:00 26.8 C 48 % 14.87 C
Sensor: Nr:Datum:Temp:Feuchte:Taupunkt:
Aussen-T/F 501 10-08-2019 17:40:00 26.8 C 47 % 14.55 C
502 10-08-2019 17:45:00 26.7 C 47 % 14.45 C
503 10-08-2019 17:50:00 26.4 C 49 % 14.83 C
504 10-08-2019 17:55:00 26.4 C 51 % 15.45 C
505 10-08-2019 18:00:00 26.8 C 48 % 14.87 C
506 10-08-2019 18:05:00 26.7 C 46 % 14.12 C
507 10-08-2019 18:10:00 26.4 C 47 % 14.18 C
508 10-08-2019 18:15:00 26.4 C 47 % 14.18 C
509 10-08-2019 18:20:00 26.3 C 48 % 14.42 C
510 10-08-2019 18:25:00 26.2 C 51 % 15.27 C
511 10-08-2019 18:30:00 25.9 C 49 % 14.37 C
512 10-08-2019 18:35:00 25.5 C 49 % 14 C
513 10-08-2019 18:40:00 25.2 C 50 % 14.04 C
514 10-08-2019 18:45:00 25.2 C 52 % 14.65 C
515 10-08-2019 18:50:00 25.5 C 50 % 14.32 C
516 10-08-2019 18:55:00 25.8 C 52 % 15.2 C
517 10-08-2019 19:00:00 25.8 C 49 % 14.28 C
518 10-08-2019 19:05:00 25.9 C 47 % 13.73 C
519 10-08-2019 19:10:00 25.8 C 47 % 13.64 C
520 10-08-2019 19:15:00 25.7 C 48 % 13.87 C
521 10-08-2019 19:20:00 25.5 C 48 % 13.69 C
522 10-08-2019 19:25:00 25.1 C 49 % 13.64 C
523 10-08-2019 19:30:00 24.9 C 51 % 14.07 C
524 10-08-2019 19:35:00 24.8 C 49 % 13.36 C
525 10-08-2019 19:40:00 24.4 C 50 % 13.31 C
Sensor: Nr:Datum:Temp:Feuchte:Taupunkt:
Aussen-T/F 526 10-08-2019 19:45:00 24.2 C 53 % 14.02 C
527 10-08-2019 19:50:00 24.1 C 52 % 13.63 C
528 10-08-2019 19:55:00 23.9 C 53 % 13.74 C
529 10-08-2019 20:00:00 23.9 C 52 % 13.45 C
530 10-08-2019 20:05:00 23.8 C 52 % 13.36 C
531 10-08-2019 20:10:00 23.8 C 55 % 14.22 C
532 10-08-2019 20:15:00 23.7 C 56 % 14.4 C
533 10-08-2019 20:20:00 23.4 C 60 % 15.19 C
534 10-08-2019 20:25:00 23 C 62 % 15.33 C
535 10-08-2019 20:30:00 22.7 C 64 % 15.54 C
536 10-08-2019 20:35:00 22.2 C 66 % 15.55 C
537 10-08-2019 20:40:00 21.8 C 64 % 14.69 C
538 10-08-2019 20:45:00 21.4 C 67 % 15.02 C
539 10-08-2019 20:50:00 21.1 C 68 % 14.97 C
540 10-08-2019 20:55:00 20.8 C 69 % 14.91 C
541 10-08-2019 21:00:00 20.5 C 69 % 14.62 C
542 10-08-2019 21:05:00 20.2 C 68 % 14.11 C
543 10-08-2019 21:10:00 20 C 71 % 14.58 C
544 10-08-2019 21:15:00 19.8 C 71 % 14.39 C
545 10-08-2019 21:20:00 19.6 C 71 % 14.2 C
546 10-08-2019 21:25:00 19.4 C 72 % 14.22 C
547 10-08-2019 21:30:00 19.3 C 73 % 14.34 C
548 10-08-2019 21:35:00 19.1 C 74 % 14.36 C
549 10-08-2019 21:40:00 19 C 75 % 14.47 C
550 10-08-2019 21:45:00 18.8 C 75 % 14.28 C
Sensor: Nr:Datum:Temp:Feuchte:Taupunkt:
Aussen-T/F 551 10-08-2019 21:50:00 18.7 C 76 % 14.39 C
552 10-08-2019 21:55:00 18.6 C 77 % 14.49 C
553 10-08-2019 22:00:00 18.4 C 76 % 14.1 C
554 10-08-2019 22:05:00 18.3 C 77 % 14.2 C
555 10-08-2019 22:10:00 18.2 C 77 % 14.1 C
556 10-08-2019 22:15:00 18.1 C 79 % 14.4 C
557 10-08-2019 22:20:00 17.9 C 79 % 14.21 C
558 10-08-2019 22:25:00 17.7 C 78 % 13.82 C
559 10-08-2019 22:30:00 17.6 C 79 % 13.92 C
560 10-08-2019 22:35:00 17.4 C 79 % 13.72 C
561 10-08-2019 22:40:00 17.3 C 79 % 13.63 C
562 10-08-2019 22:45:00 17.3 C 80 % 13.82 C
563 10-08-2019 22:50:00 17.2 C 81 % 13.91 C
564 10-08-2019 22:55:00 17.2 C 81 % 13.91 C
565 10-08-2019 23:00:00 17.1 C 81 % 13.82 C
566 10-08-2019 23:05:00 16.9 C 81 % 13.62 C
567 10-08-2019 23:10:00 16.8 C 82 % 13.71 C
568 10-08-2019 23:15:00 16.7 C 82 % 13.61 C
569 10-08-2019 23:20:00 16.6 C 82 % 13.52 C
570 10-08-2019 23:25:00 16.4 C 81 % 13.13 C
571 10-08-2019 23:30:00 16.3 C 81 % 13.04 C
572 10-08-2019 23:35:00 16.2 C 82 % 13.13 C
573 10-08-2019 23:40:00 16.2 C 83 % 13.31 C
574 10-08-2019 23:45:00 16.1 C 83 % 13.21 C
575 10-08-2019 23:50:00 16.1 C 83 % 13.21 C
Sensor: Nr:Datum:Temp:Feuchte:Taupunkt:
Aussen-T/F 576 10-08-2019 23:55:00 16.1 C 83 % 13.21 C
577 11-08-2019 00:00:00 16 C 84 % 13.3 C
578 11-08-2019 00:05:00 15.9 C 85 % 13.38 C
579 11-08-2019 00:10:00 15.9 C 85 % 13.38 C
580 11-08-2019 00:15:00 15.8 C 85 % 13.28 C
581 11-08-2019 00:20:00 15.8 C 84 % 13.1 C
582 11-08-2019 00:25:00 15.8 C 85 % 13.28 C
583 11-08-2019 00:30:00 15.7 C 84 % 13.01 C
584 11-08-2019 00:35:00 15.7 C 85 % 13.19 C
585 11-08-2019 00:40:00 15.7 C 85 % 13.19 C
586 11-08-2019 00:45:00 15.6 C 85 % 13.09 C
587 11-08-2019 00:50:00 15.6 C 85 % 13.09 C
588 11-08-2019 00:55:00 15.6 C 86 % 13.27 C
589 11-08-2019 01:00:00 15.6 C 87 % 13.45 C
590 11-08-2019 01:05:00 15.6 C 87 % 13.45 C
591 11-08-2019 01:10:00 15.5 C 87 % 13.35 C
592 11-08-2019 01:15:00 15.4 C 87 % 13.25 C
593 11-08-2019 01:20:00 15.4 C 87 % 13.25 C
594 11-08-2019 01:25:00 15.4 C 87 % 13.25 C
595 11-08-2019 01:30:00 15.3 C 87 % 13.15 C
596 11-08-2019 01:35:00 15.3 C 87 % 13.15 C
597 11-08-2019 01:40:00 15.2 C 88 % 13.23 C
598 11-08-2019 01:45:00 15.2 C 88 % 13.23 C
599 11-08-2019 01:50:00 15.3 C 88 % 13.33 C
600 11-08-2019 01:55:00 15.3 C 88 % 13.33 C
Sensor: Nr:Datum:Temp:Feuchte:Taupunkt:
Aussen-T/F 601 11-08-2019 02:00:00 15.4 C 88 % 13.42 C
602 11-08-2019 02:05:00 15.5 C 87 % 13.35 C
603 11-08-2019 02:10:00 15.6 C 87 % 13.45 C
604 11-08-2019 02:15:00 15.7 C 87 % 13.54 C
605 11-08-2019 02:20:00 15.7 C 87 % 13.54 C
606 11-08-2019 02:25:00 15.8 C 86 % 13.46 C
607 11-08-2019 02:30:00 15.8 C 86 % 13.46 C
608 11-08-2019 02:35:00 15.8 C 87 % 13.64 C
609 11-08-2019 02:40:00 15.8 C 86 % 13.46 C
610 11-08-2019 02:45:00 15.8 C 86 % 13.46 C
611 11-08-2019 02:50:00 15.8 C 86 % 13.46 C
612 11-08-2019 02:55:00 15.7 C 85 % 13.19 C
613 11-08-2019 03:00:00 15.7 C 85 % 13.19 C
614 11-08-2019 03:05:00 15.6 C 85 % 13.09 C
615 11-08-2019 03:10:00 15.6 C 86 % 13.27 C
616 11-08-2019 03:15:00 15.4 C 86 % 13.07 C
617 11-08-2019 03:20:00 15.3 C 86 % 12.97 C
618 11-08-2019 03:25:00 15.2 C 86 % 12.88 C
619 11-08-2019 03:30:00 15.1 C 87 % 12.95 C
620 11-08-2019 03:35:00 15.1 C 87 % 12.95 C
621 11-08-2019 03:40:00 15 C 87 % 12.86 C
622 11-08-2019 03:45:00 14.9 C 87 % 12.76 C
623 11-08-2019 03:50:00 14.8 C 88 % 12.83 C
624 11-08-2019 03:55:00 14.8 C 88 % 12.83 C
625 11-08-2019 04:00:00 14.7 C 88 % 12.73 C
Sensor: Nr:Datum:Temp:Feuchte:Taupunkt:
Aussen-T/F 626 11-08-2019 04:05:00 14.7 C 88 % 12.73 C
627 11-08-2019 04:10:00 14.6 C 88 % 12.64 C
628 11-08-2019 04:15:00 14.6 C 88 % 12.64 C
629 11-08-2019 04:20:00 14.6 C 88 % 12.64 C
630 11-08-2019 04:25:00 14.5 C 88 % 12.54 C
631 11-08-2019 04:30:00 14.4 C 88 % 12.44 C
632 11-08-2019 04:35:00 14.3 C 88 % 12.34 C
633 11-08-2019 04:40:00 14.2 C 89 % 12.41 C
634 11-08-2019 04:45:00 14.2 C 89 % 12.41 C
635 11-08-2019 04:50:00 14.2 C 89 % 12.41 C
636 11-08-2019 04:55:00 14.2 C 89 % 12.41 C
637 11-08-2019 05:00:00 14.1 C 89 % 12.32 C
638 11-08-2019 05:05:00 13.9 C 89 % 12.12 C
639 11-08-2019 05:10:00 13.8 C 90 % 12.19 C
640 11-08-2019 05:15:00 13.7 C 90 % 12.09 C
641 11-08-2019 05:20:00 13.7 C 90 % 12.09 C
642 11-08-2019 05:25:00 13.6 C 90 % 11.99 C
643 11-08-2019 05:30:00 13.6 C 90 % 11.99 C
644 11-08-2019 05:35:00 13.4 C 90 % 11.79 C
645 11-08-2019 05:40:00 13.3 C 91 % 11.86 C
646 11-08-2019 05:45:00 13.3 C 91 % 11.86 C
647 11-08-2019 05:50:00 13.3 C 91 % 11.86 C
648 11-08-2019 05:55:00 13.3 C 91 % 11.86 C
649 11-08-2019 06:00:00 13.2 C 91 % 11.76 C
650 11-08-2019 06:05:00 13.2 C 92 % 11.93 C
Sensor: Nr:Datum:Temp:Feuchte:Taupunkt:
Aussen-T/F 651 11-08-2019 06:10:00 13.1 C 92 % 11.83 C
652 11-08-2019 06:15:00 13.1 C 92 % 11.83 C
653 11-08-2019 06:20:00 13.2 C 93 % 12.09 C
654 11-08-2019 06:25:00 13.3 C 93 % 12.19 C
655 11-08-2019 06:30:00 13.5 C 94 % 12.55 C
656 11-08-2019 06:35:00 13.6 C 93 % 12.49 C
657 11-08-2019 06:40:00 13.6 C 93 % 12.49 C
658 11-08-2019 06:45:00 13.7 C 93 % 12.59 C
659 11-08-2019 06:50:00 13.7 C 93 % 12.59 C
660 11-08-2019 06:55:00 13.7 C 93 % 12.59 C
661 11-08-2019 07:00:00 13.7 C 93 % 12.59 C
662 11-08-2019 07:05:00 13.8 C 93 % 12.69 C
663 11-08-2019 07:10:00 13.8 C 93 % 12.69 C
664 11-08-2019 07:15:00 13.8 C 92 % 12.52 C
665 11-08-2019 07:20:00 13.9 C 93 % 12.79 C
666 11-08-2019 07:25:00 13.9 C 93 % 12.79 C
667 11-08-2019 07:30:00 14.1 C 92 % 12.82 C
668 11-08-2019 07:35:00 14.3 C 92 % 13.02 C
669 11-08-2019 07:40:00 14.3 C 92 % 13.02 C
670 11-08-2019 07:45:00 14.3 C 91 % 12.85 C
671 11-08-2019 07:50:00 14.3 C 91 % 12.85 C
672 11-08-2019 07:55:00 14.3 C 92 % 13.02 C
673 11-08-2019 08:00:00 14.4 C 92 % 13.12 C
674 11-08-2019 08:05:00 14.6 C 92 % 13.32 C
675 11-08-2019 08:10:00 14.7 C 92 % 13.41 C
Sensor: Nr:Datum:Temp:Feuchte:Taupunkt:
Aussen-T/F 676 11-08-2019 08:15:00 14.8 C 92 % 13.51 C
677 11-08-2019 08:20:00 14.8 C 92 % 13.51 C
678 11-08-2019 08:25:00 14.9 C 91 % 13.44 C
679 11-08-2019 08:30:00 14.9 C 91 % 13.44 C
680 11-08-2019 08:35:00 15 C 91 % 13.54 C
681 11-08-2019 08:40:00 15.1 C 90 % 13.47 C
682 11-08-2019 08:45:00 15.1 C 91 % 13.64 C
683 11-08-2019 08:50:00 15.2 C 91 % 13.74 C
684 11-08-2019 08:55:00 15.3 C 91 % 13.84 C
685 11-08-2019 09:00:00 15.3 C 90 % 13.67 C
686 11-08-2019 09:05:00 15.3 C 90 % 13.67 C
687 11-08-2019 09:10:00 15.4 C 90 % 13.77 C
688 11-08-2019 09:15:00 15.6 C 91 % 14.14 C
689 11-08-2019 09:20:00 15.8 C 90 % 14.16 C
690 11-08-2019 09:25:00 15.9 C 89 % 14.09 C
691 11-08-2019 09:30:00 16.2 C 86 % 13.86 C
692 11-08-2019 09:35:00 16.6 C 86 % 14.25 C
693 11-08-2019 09:40:00 16.8 C 86 % 14.45 C
694 11-08-2019 09:45:00 16.9 C 84 % 14.18 C
695 11-08-2019 09:50:00 17.2 C 82 % 14.1 C
696 11-08-2019 09:55:00 17.6 C 81 % 14.3 C
697 11-08-2019 10:00:00 17.9 C 78 % 14.01 C
698 11-08-2019 10:05:00 18.3 C 75 % 13.79 C
699 11-08-2019 10:10:00 18.7 C 75 % 14.18 C
700 11-08-2019 10:15:00 18.8 C 75 % 14.28 C
Sensor: Nr:Datum:Temp:Feuchte:Taupunkt:
Aussen-T/F 701 11-08-2019 10:20:00 18.9 C 72 % 13.74 C
702 11-08-2019 10:25:00 19.2 C 71 % 13.82 C
703 11-08-2019 10:30:00 19.5 C 68 % 13.44 C
704 11-08-2019 10:35:00 19.8 C 68 % 13.73 C
705 11-08-2019 10:40:00 20.1 C 65 % 13.32 C
706 11-08-2019 10:45:00 20.3 C 64 % 13.27 C
707 11-08-2019 10:50:00 20.4 C 63 % 13.12 C
708 11-08-2019 10:55:00 20.6 C 63 % 13.31 C
709 11-08-2019 11:00:00 20.7 C 62 % 13.16 C
710 11-08-2019 11:05:00 20.7 C 61 % 12.91 C
711 11-08-2019 11:10:00 20.8 C 60 % 12.76 C
712 11-08-2019 11:15:00 20.8 C 60 % 12.76 C
713 11-08-2019 11:20:00 20.9 C 60 % 12.85 C
714 11-08-2019 11:25:00 21.2 C 60 % 13.13 C
715 11-08-2019 11:30:00 21.3 C 62 % 13.73 C
716 11-08-2019 11:35:00 21.6 C 59 % 13.25 C
717 11-08-2019 11:40:00 21.8 C 57 % 12.91 C
718 11-08-2019 11:45:00 21.8 C 55 % 12.36 C
719 11-08-2019 11:50:00 21.8 C 59 % 13.44 C
720 11-08-2019 11:55:00 21.8 C 56 % 12.64 C
721 11-08-2019 12:00:00 21.8 C 58 % 13.17 C
722 11-08-2019 12:05:00 21.8 C 58 % 13.17 C
723 11-08-2019 12:10:00 21.8 C 58 % 13.17 C
724 11-08-2019 12:15:00 22 C 56 % 12.82 C
725 11-08-2019 12:20:00 22.1 C 57 % 13.19 C
Sensor: Nr:Datum:Temp:Feuchte:Taupunkt:
Aussen-T/F 726 11-08-2019 12:25:00 22.2 C 55 % 12.73 C
727 11-08-2019 12:30:00 22.1 C 55 % 12.64 C
728 11-08-2019 12:35:00 22.2 C 55 % 12.73 C
729 11-08-2019 12:40:00 22.1 C 56 % 12.92 C
730 11-08-2019 12:45:00 22.2 C 54 % 12.45 C
731 11-08-2019 12:50:00 22.3 C 55 % 12.83 C
732 11-08-2019 12:55:00 22.5 C 53 % 12.45 C
733 11-08-2019 13:00:00 22.6 C 50 % 11.66 C
734 11-08-2019 13:05:00 22.6 C 51 % 11.96 C
735 11-08-2019 13:10:00 22.7 C 52 % 12.34 C
736 11-08-2019 13:15:00 22.7 C 51 % 12.05 C
737 11-08-2019 13:20:00 22.7 C 51 % 12.05 C
738 11-08-2019 13:25:00 22.7 C 52 % 12.34 C
739 11-08-2019 13:30:00 22.8 C 51 % 12.14 C
740 11-08-2019 13:35:00 22.7 C 50 % 11.75 C
741 11-08-2019 13:40:00 22.8 C 53 % 12.73 C
742 11-08-2019 13:45:00 22.9 C 51 % 12.23 C
743 11-08-2019 13:50:00 23 C 50 % 12.02 C
744 11-08-2019 13:55:00 23.1 C 51 % 12.42 C
745 11-08-2019 14:00:00 23.1 C 51 % 12.42 C
746 11-08-2019 14:05:00 23.1 C 50 % 12.11 C
747 11-08-2019 14:10:00 23.1 C 52 % 12.71 C
748 11-08-2019 14:15:00 23.2 C 52 % 12.8 C
749 11-08-2019 14:20:00 23.3 C 53 % 13.19 C
750 11-08-2019 14:25:00 23.2 C 51 % 12.51 C
Sensor: Nr:Datum:Temp:Feuchte:Taupunkt:
Aussen-T/F 751 11-08-2019 14:30:00 22.9 C 51 % 12.23 C
752 11-08-2019 14:35:00 22.7 C 51 % 12.05 C
753 11-08-2019 14:40:00 22.6 C 51 % 11.96 C
754 11-08-2019 14:45:00 22.6 C 52 % 12.25 C
755 11-08-2019 14:50:00 22.5 C 58 % 13.83 C
756 11-08-2019 14:55:00 22.4 C 59 % 14 C
757 11-08-2019 15:00:00 22.2 C 56 % 13.01 C
758 11-08-2019 15:05:00 22 C 57 % 13.09 C
759 11-08-2019 15:10:00 21.8 C 55 % 12.36 C
760 11-08-2019 15:15:00 21.7 C 59 % 13.34 C
761 11-08-2019 15:20:00 21.6 C 56 % 12.45 C
762 11-08-2019 15:25:00 21.6 C 62 % 14.01 C
763 11-08-2019 15:30:00 21.4 C 64 % 14.31 C
764 11-08-2019 15:35:00 21.4 C 66 % 14.79 C
765 11-08-2019 15:40:00 21.3 C 63 % 13.97 C
766 11-08-2019 15:45:00 21.2 C 67 % 14.83 C
767 11-08-2019 15:50:00 21 C 65 % 14.17 C
768 11-08-2019 15:55:00 20.9 C 66 % 14.31 C
769 11-08-2019 16:00:00 20.8 C 60 % 12.76 C
770 11-08-2019 16:05:00 20.8 C 66 % 14.22 C
771 11-08-2019 16:10:00 20.7 C 63 % 13.41 C
772 11-08-2019 16:15:00 20.6 C 65 % 13.79 C
773 11-08-2019 16:20:00 20.5 C 65 % 13.7 C
774 11-08-2019 16:25:00 20.4 C 68 % 14.3 C
775 11-08-2019 16:30:00 20.3 C 66 % 13.74 C
Sensor: Nr:Datum:Temp:Feuchte:Taupunkt:
Aussen-T/F 776 11-08-2019 16:35:00 20.2 C 73 % 15.21 C
777 11-08-2019 16:40:00 19.8 C 75 % 15.24 C
778 11-08-2019 16:45:00 19.3 C 78 % 15.37 C
779 11-08-2019 16:50:00 18.8 C 80 % 15.28 C
780 11-08-2019 16:55:00 18.4 C 81 % 15.08 C
781 11-08-2019 17:00:00 18.2 C 83 % 15.27 C
782 11-08-2019 17:05:00 17.8 C 84 % 15.06 C
783 11-08-2019 17:10:00 17.6 C 85 % 15.05 C
784 11-08-2019 17:15:00 17.4 C 86 % 15.03 C
785 11-08-2019 17:20:00 17.2 C 86 % 14.84 C
786 11-08-2019 17:25:00 17.1 C 87 % 14.92 C
787 11-08-2019 17:30:00 17 C 87 % 14.82 C
788 11-08-2019 17:35:00 16.8 C 87 % 14.62 C
789 11-08-2019 17:40:00 16.8 C 89 % 14.98 C
790 11-08-2019 17:45:00 16.8 C 89 % 14.98 C
791 11-08-2019 17:50:00 16.8 C 89 % 14.98 C
792 11-08-2019 17:55:00 16.7 C 90 % 15.05 C
793 11-08-2019 18:00:00 16.7 C 90 % 15.05 C
794 11-08-2019 18:05:00 16.6 C 90 % 14.95 C
795 11-08-2019 18:10:00 16.5 C 90 % 14.85 C
796 11-08-2019 18:15:00 16.5 C 91 % 15.03 C
797 11-08-2019 18:20:00 16.6 C 91 % 15.13 C
798 11-08-2019 18:25:00 16.6 C 91 % 15.13 C
799 11-08-2019 18:30:00 16.6 C 91 % 15.13 C
800 11-08-2019 18:35:00 16.5 C 91 % 15.03 C
Sensor: Nr:Datum:Temp:Feuchte:Taupunkt:
Aussen-T/F 801 11-08-2019 18:40:00 16.4 C 91 % 14.93 C
802 11-08-2019 18:45:00 16.3 C 90 % 14.66 C
803 11-08-2019 18:50:00 16.2 C 90 % 14.56 C
804 11-08-2019 18:55:00 16.2 C 89 % 14.39 C
805 11-08-2019 19:00:00 16.1 C 89 % 14.29 C
806 11-08-2019 19:05:00 16.1 C 89 % 14.29 C
807 11-08-2019 19:10:00 16 C 89 % 14.19 C
808 11-08-2019 19:15:00 15.9 C 88 % 13.92 C
809 11-08-2019 19:20:00 15.9 C 89 % 14.09 C
810 11-08-2019 19:25:00 16 C 89 % 14.19 C
811 11-08-2019 19:30:00 16.1 C 90 % 14.46 C
812 11-08-2019 19:35:00 16.2 C 90 % 14.56 C
813 11-08-2019 19:40:00 16.2 C 91 % 14.73 C
814 11-08-2019 19:45:00 16.2 C 91 % 14.73 C
815 11-08-2019 19:50:00 16.1 C 90 % 14.46 C
816 11-08-2019 19:55:00 16.1 C 91 % 14.63 C
817 11-08-2019 20:00:00 16.1 C 91 % 14.63 C
818 11-08-2019 20:05:00 16 C 91 % 14.53 C
819 11-08-2019 20:10:00 15.9 C 91 % 14.43 C
820 11-08-2019 20:15:00 15.9 C 91 % 14.43 C
821 11-08-2019 20:20:00 15.8 C 91 % 14.33 C
822 11-08-2019 20:25:00 15.8 C 91 % 14.33 C
823 11-08-2019 20:30:00 15.7 C 91 % 14.24 C
824 11-08-2019 20:35:00 15.7 C 91 % 14.24 C
825 11-08-2019 20:40:00 15.6 C 91 % 14.14 C
Sensor: Nr:Datum:Temp:Feuchte:Taupunkt:
Aussen-T/F 826 11-08-2019 20:45:00 15.6 C 91 % 14.14 C
827 11-08-2019 20:50:00 15.6 C 91 % 14.14 C
828 11-08-2019 20:55:00 15.6 C 91 % 14.14 C
829 11-08-2019 21:00:00 15.5 C 91 % 14.04 C
830 11-08-2019 21:05:00 15.4 C 92 % 14.11 C
831 11-08-2019 21:10:00 15.4 C 92 % 14.11 C
832 11-08-2019 21:15:00 15.4 C 92 % 14.11 C
833 11-08-2019 21:20:00 15.3 C 92 % 14.01 C
834 11-08-2019 21:25:00 15.3 C 92 % 14.01 C
835 11-08-2019 21:30:00 15.3 C 92 % 14.01 C
836 11-08-2019 21:35:00 15.2 C 92 % 13.91 C
837 11-08-2019 21:40:00 15.2 C 92 % 13.91 C
838 11-08-2019 21:45:00 15.1 C 92 % 13.81 C
839 11-08-2019 21:50:00 14.9 C 91 % 13.44 C
840 11-08-2019 21:55:00 14.8 C 91 % 13.35 C
841 11-08-2019 22:00:00 14.7 C 91 % 13.25 C
842 11-08-2019 22:05:00 14.6 C 91 % 13.15 C
843 11-08-2019 22:10:00 14.5 C 91 % 13.05 C
844 11-08-2019 22:15:00 14.4 C 91 % 12.95 C
845 11-08-2019 22:20:00 14.3 C 92 % 13.02 C
846 11-08-2019 22:25:00 14.3 C 92 % 13.02 C
847 11-08-2019 22:30:00 14.2 C 92 % 12.92 C
848 11-08-2019 22:35:00 14.2 C 92 % 12.92 C
849 11-08-2019 22:40:00 14.1 C 92 % 12.82 C
850 11-08-2019 22:45:00 14.1 C 92 % 12.82 C
Sensor: Nr:Datum:Temp:Feuchte:Taupunkt:
Aussen-T/F 851 11-08-2019 22:50:00 14.1 C 93 % 12.99 C
852 11-08-2019 22:55:00 14.1 C 93 % 12.99 C
853 11-08-2019 23:00:00 14.1 C 93 % 12.99 C
854 11-08-2019 23:05:00 14.1 C 93 % 12.99 C
855 11-08-2019 23:10:00 14.2 C 93 % 13.08 C
856 11-08-2019 23:15:00 14.2 C 93 % 13.08 C
857 11-08-2019 23:20:00 14.2 C 93 % 13.08 C
858 11-08-2019 23:25:00 14.2 C 93 % 13.08 C
859 11-08-2019 23:30:00 14.2 C 93 % 13.08 C
860 11-08-2019 23:35:00 14.2 C 93 % 13.08 C
861 11-08-2019 23:40:00 14.2 C 94 % 13.25 C
862 11-08-2019 23:45:00 14.3 C 94 % 13.35 C
863 11-08-2019 23:50:00 14.4 C 94 % 13.45 C
864 11-08-2019 23:55:00 14.6 C 94 % 13.65 C
865 12-08-2019 00:00:00 14.7 C 94 % 13.74 C
866 12-08-2019 00:05:00 14.7 C 93 % 13.58 C
867 12-08-2019 00:10:00 14.8 C 93 % 13.68 C
868 12-08-2019 00:15:00 14.8 C 93 % 13.68 C
869 12-08-2019 00:20:00 14.8 C 93 % 13.68 C
870 12-08-2019 00:25:00 14.9 C 93 % 13.78 C
871 12-08-2019 00:30:00 14.8 C 93 % 13.68 C
872 12-08-2019 00:35:00 14.9 C 92 % 13.61 C
873 12-08-2019 00:40:00 15 C 92 % 13.71 C
874 12-08-2019 00:45:00 15 C 92 % 13.71 C
875 12-08-2019 00:50:00 15 C 92 % 13.71 C
Sensor: Nr:Datum:Temp:Feuchte:Taupunkt:
Aussen-T/F 876 12-08-2019 00:55:00 14.9 C 91 % 13.44 C
877 12-08-2019 01:00:00 14.8 C 91 % 13.35 C
878 12-08-2019 01:05:00 14.7 C 91 % 13.25 C
879 12-08-2019 01:10:00 14.6 C 92 % 13.32 C
880 12-08-2019 01:15:00 14.5 C 92 % 13.22 C
881 12-08-2019 01:20:00 14.4 C 92 % 13.12 C
882 12-08-2019 01:25:00 14.3 C 92 % 13.02 C
883 12-08-2019 01:30:00 14.3 C 92 % 13.02 C
884 12-08-2019 01:35:00 14.2 C 92 % 12.92 C
885 12-08-2019 01:40:00 14.1 C 92 % 12.82 C
886 12-08-2019 01:45:00 14.1 C 93 % 12.99 C
887 12-08-2019 01:50:00 14 C 93 % 12.89 C
888 12-08-2019 01:55:00 13.9 C 93 % 12.79 C
889 12-08-2019 02:00:00 13.9 C 93 % 12.79 C
890 12-08-2019 02:05:00 13.8 C 93 % 12.69 C
891 12-08-2019 02:10:00 13.8 C 93 % 12.69 C
892 12-08-2019 02:15:00 13.8 C 93 % 12.69 C
893 12-08-2019 02:20:00 13.7 C 93 % 12.59 C
894 12-08-2019 02:25:00 13.7 C 93 % 12.59 C
895 12-08-2019 02:30:00 13.6 C 93 % 12.49 C
896 12-08-2019 02:35:00 13.6 C 94 % 12.65 C
897 12-08-2019 02:40:00 13.6 C 94 % 12.65 C
898 12-08-2019 02:45:00 13.6 C 94 % 12.65 C
899 12-08-2019 02:50:00 13.5 C 94 % 12.55 C
900 12-08-2019 02:55:00 13.4 C 94 % 12.45 C
Sensor: Nr:Datum:Temp:Feuchte:Taupunkt:
Aussen-T/F 901 12-08-2019 03:00:00 13.3 C 94 % 12.36 C
902 12-08-2019 03:05:00 13.3 C 94 % 12.36 C
903 12-08-2019 03:10:00 13.3 C 94 % 12.36 C
904 12-08-2019 03:15:00 13.2 C 94 % 12.26 C
905 12-08-2019 03:20:00 13.2 C 94 % 12.26 C
906 12-08-2019 03:25:00 13.1 C 94 % 12.16 C
907 12-08-2019 03:30:00 13.1 C 94 % 12.16 C
908 12-08-2019 03:35:00 13.1 C 94 % 12.16 C
909 12-08-2019 03:40:00 13 C 94 % 12.06 C
910 12-08-2019 03:45:00 13 C 94 % 12.06 C
911 12-08-2019 03:50:00 13 C 94 % 12.06 C
912 12-08-2019 03:55:00 12.9 C 94 % 11.96 C
913 12-08-2019 04:00:00 12.9 C 95 % 12.12 C
914 12-08-2019 04:05:00 12.9 C 95 % 12.12 C
915 12-08-2019 04:10:00 12.9 C 95 % 12.12 C
916 12-08-2019 04:15:00 12.9 C 95 % 12.12 C
917 12-08-2019 04:20:00 13 C 95 % 12.22 C
918 12-08-2019 04:25:00 13 C 95 % 12.22 C
919 12-08-2019 04:30:00 12.9 C 95 % 12.12 C
920 12-08-2019 04:35:00 12.9 C 95 % 12.12 C
921 12-08-2019 04:40:00 12.9 C 95 % 12.12 C
922 12-08-2019 04:45:00 12.8 C 95 % 12.02 C
923 12-08-2019 04:50:00 12.8 C 95 % 12.02 C
924 12-08-2019 04:55:00 12.8 C 95 % 12.02 C
925 12-08-2019 05:00:00 12.8 C 95 % 12.02 C
Sensor: Nr:Datum:Temp:Feuchte:Taupunkt:
Aussen-T/F 926 12-08-2019 05:05:00 12.8 C 95 % 12.02 C
927 12-08-2019 05:10:00 12.8 C 95 % 12.02 C
928 12-08-2019 05:15:00 12.8 C 95 % 12.02 C
929 12-08-2019 05:20:00 12.8 C 95 % 12.02 C
930 12-08-2019 05:25:00 12.7 C 95 % 11.92 C
931 12-08-2019 05:30:00 12.6 C 95 % 11.82 C
932 12-08-2019 05:35:00 12.6 C 95 % 11.82 C
933 12-08-2019 05:40:00 12.6 C 95 % 11.82 C
934 12-08-2019 05:45:00 12.6 C 95 % 11.82 C
935 12-08-2019 05:50:00 12.5 C 95 % 11.72 C
936 12-08-2019 05:55:00 12.5 C 95 % 11.72 C
937 12-08-2019 06:00:00 12.5 C 95 % 11.72 C
938 12-08-2019 06:05:00 12.5 C 95 % 11.72 C
939 12-08-2019 06:10:00 12.5 C 95 % 11.72 C
940 12-08-2019 06:15:00 12.5 C 95 % 11.72 C
941 12-08-2019 06:20:00 12.6 C 95 % 11.82 C
942 12-08-2019 06:25:00 12.6 C 96 % 11.98 C
943 12-08-2019 06:30:00 12.7 C 96 % 12.08 C
944 12-08-2019 06:35:00 12.8 C 96 % 12.18 C
945 12-08-2019 06:40:00 12.8 C 96 % 12.18 C
946 12-08-2019 06:45:00 12.9 C 96 % 12.28 C
947 12-08-2019 06:50:00 12.9 C 96 % 12.28 C
948 12-08-2019 06:55:00 13 C 96 % 12.38 C
949 12-08-2019 07:00:00 13 C 96 % 12.38 C
950 12-08-2019 07:05:00 13.1 C 96 % 12.48 C
Sensor: Nr:Datum:Temp:Feuchte:Taupunkt:
Aussen-T/F 951 12-08-2019 07:10:00 13.1 C 96 % 12.48 C
952 12-08-2019 07:15:00 13.1 C 96 % 12.48 C
953 12-08-2019 07:20:00 13.1 C 96 % 12.48 C
954 12-08-2019 07:25:00 13.1 C 96 % 12.48 C
955 12-08-2019 07:30:00 13 C 96 % 12.38 C
956 12-08-2019 07:35:00 13 C 96 % 12.38 C
957 12-08-2019 07:40:00 13 C 96 % 12.38 C
958 12-08-2019 07:45:00 13 C 96 % 12.38 C
959 12-08-2019 07:50:00 13.1 C 96 % 12.48 C
960 12-08-2019 07:55:00 13.1 C 96 % 12.48 C
961 12-08-2019 08:00:00 13.2 C 96 % 12.58 C
962 12-08-2019 08:05:00 13.2 C 96 % 12.58 C
963 12-08-2019 08:10:00 13.2 C 96 % 12.58 C
964 12-08-2019 08:15:00 13.3 C 96 % 12.68 C
965 12-08-2019 08:20:00 13.3 C 96 % 12.68 C
966 12-08-2019 08:25:00 13.4 C 96 % 12.78 C
967 12-08-2019 08:30:00 13.5 C 96 % 12.87 C
968 12-08-2019 08:35:00 13.6 C 96 % 12.97 C
969 12-08-2019 08:40:00 13.7 C 96 % 13.07 C
970 12-08-2019 08:45:00 13.7 C 96 % 13.07 C
971 12-08-2019 08:50:00 13.9 C 96 % 13.27 C
972 12-08-2019 08:55:00 14 C 96 % 13.37 C
973 12-08-2019 09:00:00 14.2 C 96 % 13.57 C
974 12-08-2019 09:05:00 14.3 C 96 % 13.67 C
975 12-08-2019 09:10:00 14.4 C 95 % 13.61 C
Sensor: Nr:Datum:Temp:Feuchte:Taupunkt:
Aussen-T/F 976 12-08-2019 09:15:00 14.7 C 94 % 13.74 C
977 12-08-2019 09:20:00 14.8 C 94 % 13.84 C
978 12-08-2019 09:25:00 15 C 93 % 13.88 C
979 12-08-2019 09:30:00 15.1 C 93 % 13.98 C
980 12-08-2019 09:35:00 15.2 C 92 % 13.91 C
981 12-08-2019 09:40:00 15.3 C 91 % 13.84 C
982 12-08-2019 09:45:00 15.6 C 90 % 13.97 C
983 12-08-2019 09:50:00 15.9 C 89 % 14.09 C
984 12-08-2019 09:55:00 16.1 C 88 % 14.11 C
985 12-08-2019 10:00:00 16.3 C 87 % 14.13 C
986 12-08-2019 10:05:00 16.6 C 87 % 14.43 C
987 12-08-2019 10:10:00 16.8 C 85 % 14.26 C
988 12-08-2019 10:15:00 17.1 C 86 % 14.74 C
989 12-08-2019 10:20:00 17.3 C 84 % 14.57 C
990 12-08-2019 10:25:00 17.6 C 83 % 14.68 C
991 12-08-2019 10:30:00 17.8 C 82 % 14.69 C
992 12-08-2019 10:35:00 18.1 C 80 % 14.6 C
993 12-08-2019 10:40:00 18.3 C 81 % 14.98 C
994 12-08-2019 10:45:00 18.5 C 78 % 14.59 C
995 12-08-2019 10:50:00 18.7 C 79 % 14.99 C
996 12-08-2019 10:55:00 18.7 C 78 % 14.79 C
997 12-08-2019 11:00:00 18.8 C 79 % 15.08 C
998 12-08-2019 11:05:00 19.1 C 78 % 15.18 C
999 12-08-2019 11:10:00 19.3 C 76 % 14.97 C
1000 12-08-2019 11:15:00 19.6 C 75 % 15.05 C
Sensor: Nr:Datum:Temp:Feuchte:Taupunkt:
Aussen-T/F 1001 12-08-2019 11:20:00 19.8 C 75 % 15.24 C
1002 12-08-2019 11:25:00 20.1 C 72 % 14.9 C
1003 12-08-2019 11:30:00 20.3 C 72 % 15.09 C
1004 12-08-2019 11:35:00 20.4 C 69 % 14.52 C
1005 12-08-2019 11:40:00 20.7 C 69 % 14.81 C
1006 12-08-2019 11:45:00 20.8 C 70 % 15.13 C
1007 12-08-2019 11:50:00 21 C 68 % 14.87 C
1008 12-08-2019 11:55:00 21.1 C 68 % 14.97 C
1009 12-08-2019 12:00:00 21.1 C 69 % 15.19 C
1010 12-08-2019 12:05:00 21.1 C 67 % 14.74 C
1011 12-08-2019 12:10:00 21.2 C 70 % 15.51 C
1012 12-08-2019 12:15:00 21.3 C 67 % 14.93 C
1013 12-08-2019 12:20:00 21.2 C 67 % 14.83 C
1014 12-08-2019 12:25:00 21.1 C 66 % 14.5 C
1015 12-08-2019 12:30:00 21.1 C 68 % 14.97 C
1016 12-08-2019 12:35:00 21.2 C 66 % 14.6 C
1017 12-08-2019 12:40:00 21.3 C 63 % 13.97 C
1018 12-08-2019 12:45:00 21.4 C 65 % 14.55 C
1019 12-08-2019 12:50:00 21.6 C 61 % 13.76 C
1020 12-08-2019 12:55:00 21.7 C 59 % 13.34 C
1021 12-08-2019 13:00:00 21.7 C 58 % 13.08 C
1022 12-08-2019 13:05:00 21.8 C 59 % 13.44 C
1023 12-08-2019 13:10:00 21.8 C 59 % 13.44 C
1024 12-08-2019 13:15:00 21.8 C 60 % 13.69 C
1025 12-08-2019 13:20:00 21.8 C 61 % 13.95 C
Sensor: Nr:Datum:Temp:Feuchte:Taupunkt:
Aussen-T/F 1026 12-08-2019 13:25:00 21.9 C 61 % 14.04 C
1027 12-08-2019 13:30:00 21.9 C 59 % 13.53 C
1028 12-08-2019 13:35:00 21.9 C 62 % 14.29 C
1029 12-08-2019 13:40:00 21.8 C 61 % 13.95 C
1030 12-08-2019 13:45:00 21.6 C 64 % 14.5 C
1031 12-08-2019 13:50:00 21.6 C 63 % 14.26 C
1032 12-08-2019 13:55:00 21.7 C 62 % 14.1 C
1033 12-08-2019 14:00:00 21.8 C 62 % 14.2 C
1034 12-08-2019 14:05:00 21.9 C 62 % 14.29 C
1035 12-08-2019 14:10:00 22.1 C 63 % 14.73 C
1036 12-08-2019 14:15:00 22.3 C 61 % 14.42 C
1037 12-08-2019 14:20:00 22.4 C 61 % 14.51 C
1038 12-08-2019 14:25:00 22.5 C 60 % 14.35 C
1039 12-08-2019 14:30:00 22.6 C 58 % 13.92 C
1040 12-08-2019 14:35:00 22.7 C 61 % 14.79 C
1041 12-08-2019 14:40:00 22.9 C 59 % 14.47 C
1042 12-08-2019 14:45:00 22.9 C 61 % 14.98 C
1043 12-08-2019 14:50:00 23.2 C 58 % 14.48 C
1044 12-08-2019 14:55:00 23.3 C 57 % 14.31 C
1045 12-08-2019 15:00:00 23.6 C 59 % 15.12 C
1046 12-08-2019 15:05:00 23.6 C 56 % 14.31 C
1047 12-08-2019 15:10:00 23.7 C 56 % 14.4 C
1048 12-08-2019 15:15:00 23.7 C 54 % 13.84 C
1049 12-08-2019 15:20:00 23.5 C 54 % 13.66 C
1050 12-08-2019 15:25:00 23.3 C 56 % 14.03 C
Sensor: Nr:Datum:Temp:Feuchte:Taupunkt:
Aussen-T/F 1051 12-08-2019 15:30:00 23.2 C 56 % 13.94 C
1052 12-08-2019 15:35:00 23.4 C 57 % 14.4 C
1053 12-08-2019 15:40:00 23.2 C 55 % 13.66 C
1054 12-08-2019 15:45:00 23 C 56 % 13.75 C
1055 12-08-2019 15:50:00 23.5 C 55 % 13.94 C
1056 12-08-2019 15:55:00 24 C 53 % 13.83 C
1057 12-08-2019 16:00:00 23.7 C 53 % 13.56 C
1058 12-08-2019 16:05:00 23.6 C 54 % 13.75 C
1059 12-08-2019 16:10:00 23.4 C 55 % 13.85 C
1060 12-08-2019 16:15:00 23.3 C 56 % 14.03 C
1061 12-08-2019 16:20:00 23.1 C 57 % 14.12 C
1062 12-08-2019 16:25:00 22.9 C 57 % 13.93 C
1063 12-08-2019 16:30:00 23 C 58 % 14.29 C
1064 12-08-2019 16:35:00 22.9 C 59 % 14.47 C
1065 12-08-2019 16:40:00 22.6 C 57 % 13.65 C
1066 12-08-2019 16:45:00 21.5 C 63 % 14.16 C
1067 12-08-2019 16:50:00 20.5 C 66 % 13.93 C
1068 12-08-2019 16:55:00 20 C 67 % 13.69 C
1069 12-08-2019 17:00:00 19.7 C 68 % 13.63 C
1070 12-08-2019 17:05:00 19.6 C 69 % 13.76 C
1071 12-08-2019 17:10:00 19.4 C 67 % 13.12 C
1072 12-08-2019 17:15:00 19.1 C 70 % 13.5 C
1073 12-08-2019 17:20:00 18.7 C 73 % 13.76 C
1074 12-08-2019 17:25:00 18 C 77 % 13.91 C
1075 12-08-2019 17:30:00 17.5 C 80 % 14.01 C
Sensor: Nr:Datum:Temp:Feuchte:Taupunkt:
Aussen-T/F 1076 12-08-2019 17:35:00 17.1 C 83 % 14.19 C
1077 12-08-2019 17:40:00 16.8 C 84 % 14.08 C
1078 12-08-2019 17:45:00 16.5 C 85 % 13.97 C
1079 12-08-2019 17:50:00 16.2 C 85 % 13.68 C
1080 12-08-2019 17:55:00 16.1 C 86 % 13.76 C
1081 12-08-2019 18:00:00 16.1 C 88 % 14.11 C
1082 12-08-2019 18:05:00 16 C 88 % 14.01 C
1083 12-08-2019 18:10:00 16.1 C 89 % 14.29 C
1084 12-08-2019 18:15:00 16.1 C 90 % 14.46 C
1085 12-08-2019 18:20:00 16.1 C 90 % 14.46 C
1086 12-08-2019 18:25:00 15.9 C 90 % 14.26 C
1087 12-08-2019 18:30:00 15.8 C 90 % 14.16 C
1088 12-08-2019 18:35:00 15.8 C 90 % 14.16 C
1089 12-08-2019 18:40:00 15.8 C 91 % 14.33 C
1090 12-08-2019 18:45:00 15.8 C 91 % 14.33 C
1091 12-08-2019 18:50:00 15.8 C 91 % 14.33 C
1092 12-08-2019 18:55:00 15.8 C 92 % 14.5 C
1093 12-08-2019 19:00:00 15.8 C 92 % 14.5 C
1094 12-08-2019 19:05:00 15.9 C 92 % 14.6 C
1095 12-08-2019 19:10:00 15.9 C 92 % 14.6 C
1096 12-08-2019 19:15:00 16 C 92 % 14.7 C
1097 12-08-2019 19:20:00 16 C 92 % 14.7 C
1098 12-08-2019 19:25:00 16 C 92 % 14.7 C
1099 12-08-2019 19:30:00 16 C 92 % 14.7 C
1100 12-08-2019 19:35:00 16 C 92 % 14.7 C
Sensor: Nr:Datum:Temp:Feuchte:Taupunkt:
Aussen-T/F 1101 12-08-2019 19:40:00 15.9 C 92 % 14.6 C
1102 12-08-2019 19:45:00 15.9 C 92 % 14.6 C
1103 12-08-2019 19:50:00 15.9 C 92 % 14.6 C
1104 12-08-2019 19:55:00 15.8 C 92 % 14.5 C
1105 12-08-2019 20:00:00 15.9 C 92 % 14.6 C
1106 12-08-2019 20:05:00 15.9 C 92 % 14.6 C
1107 12-08-2019 20:10:00 15.9 C 93 % 14.77 C
1108 12-08-2019 20:15:00 15.9 C 92 % 14.6 C
1109 12-08-2019 20:20:00 15.7 C 92 % 14.4 C
1110 12-08-2019 20:25:00 15.6 C 91 % 14.14 C
1111 12-08-2019 20:30:00 15.4 C 92 % 14.11 C
1112 12-08-2019 20:35:00 15.3 C 92 % 14.01 C
1113 12-08-2019 20:40:00 15.3 C 92 % 14.01 C
1114 12-08-2019 20:45:00 15.2 C 92 % 13.91 C
1115 12-08-2019 20:50:00 15.2 C 93 % 14.08 C
1116 12-08-2019 20:55:00 15.2 C 93 % 14.08 C
1117 12-08-2019 21:00:00 15.2 C 93 % 14.08 C
1118 12-08-2019 21:05:00 15.1 C 93 % 13.98 C
1119 12-08-2019 21:10:00 15.2 C 93 % 14.08 C
1120 12-08-2019 21:15:00 15.2 C 93 % 14.08 C
1121 12-08-2019 21:20:00 15.2 C 94 % 14.24 C
1122 12-08-2019 21:25:00 15.2 C 93 % 14.08 C
1123 12-08-2019 21:30:00 15.2 C 94 % 14.24 C
1124 12-08-2019 21:35:00 15.2 C 94 % 14.24 C
1125 12-08-2019 21:40:00 15.2 C 94 % 14.24 C
Sensor: Nr:Datum:Temp:Feuchte:Taupunkt:
Aussen-T/F 1126 12-08-2019 21:45:00 15.2 C 94 % 14.24 C
1127 12-08-2019 21:50:00 15.2 C 94 % 14.24 C
1128 12-08-2019 21:55:00 15.2 C 94 % 14.24 C
1129 12-08-2019 22:00:00 15.2 C 94 % 14.24 C
1130 12-08-2019 22:05:00 15.1 C 94 % 14.14 C
1131 12-08-2019 22:10:00 15.1 C 94 % 14.14 C
1132 12-08-2019 22:15:00 15.1 C 94 % 14.14 C
1133 12-08-2019 22:20:00 15 C 94 % 14.04 C
1134 12-08-2019 22:25:00 14.9 C 94 % 13.94 C
1135 12-08-2019 22:30:00 14.9 C 94 % 13.94 C
1136 12-08-2019 22:35:00 14.9 C 94 % 13.94 C
1137 12-08-2019 22:40:00 14.9 C 94 % 13.94 C
1138 12-08-2019 22:45:00 14.9 C 94 % 13.94 C
1139 12-08-2019 22:50:00 14.9 C 94 % 13.94 C
1140 12-08-2019 22:55:00 14.8 C 94 % 13.84 C
1141 12-08-2019 23:00:00 14.7 C 94 % 13.74 C
1142 12-08-2019 23:05:00 14.7 C 93 % 13.58 C
1143 12-08-2019 23:10:00 14.5 C 93 % 13.38 C
1144 12-08-2019 23:15:00 14.4 C 93 % 13.28 C
1145 12-08-2019 23:20:00 14.2 C 93 % 13.08 C
1146 12-08-2019 23:25:00 14.1 C 92 % 12.82 C
1147 12-08-2019 23:30:00 13.9 C 92 % 12.62 C
1148 12-08-2019 23:35:00 13.8 C 92 % 12.52 C
1149 12-08-2019 23:40:00 13.7 C 92 % 12.42 C
1150 12-08-2019 23:45:00 13.5 C 92 % 12.23 C
Sensor: Nr:Datum:Temp:Feuchte:Taupunkt:
Aussen-T/F 1151 12-08-2019 23:50:00 13.4 C 93 % 12.29 C
1152 12-08-2019 23:55:00 13.3 C 93 % 12.19 C
1153 13-08-2019 00:00:00 13.4 C 94 % 12.45 C
1154 13-08-2019 00:05:00 13.4 C 94 % 12.45 C
1155 13-08-2019 00:10:00 13.4 C 94 % 12.45 C
1156 13-08-2019 00:15:00 13.5 C 94 % 12.55 C
1157 13-08-2019 00:20:00 13.6 C 95 % 12.81 C
1158 13-08-2019 00:25:00 13.6 C 95 % 12.81 C
1159 13-08-2019 00:30:00 13.7 C 95 % 12.91 C
1160 13-08-2019 00:35:00 13.7 C 94 % 12.75 C
1161 13-08-2019 00:40:00 13.7 C 94 % 12.75 C
1162 13-08-2019 00:45:00 13.6 C 94 % 12.65 C
1163 13-08-2019 00:50:00 13.6 C 94 % 12.65 C
1164 13-08-2019 00:55:00 13.5 C 94 % 12.55 C
1165 13-08-2019 01:00:00 13.4 C 94 % 12.45 C
1166 13-08-2019 01:05:00 13.3 C 94 % 12.36 C
1167 13-08-2019 01:10:00 13.2 C 94 % 12.26 C
1168 13-08-2019 01:15:00 13.2 C 94 % 12.26 C
1169 13-08-2019 01:20:00 13.1 C 94 % 12.16 C
1170 13-08-2019 01:25:00 13 C 94 % 12.06 C
1171 13-08-2019 01:30:00 13 C 94 % 12.06 C
1172 13-08-2019 01:35:00 12.9 C 94 % 11.96 C
1173 13-08-2019 01:40:00 12.9 C 94 % 11.96 C
1174 13-08-2019 01:45:00 12.8 C 95 % 12.02 C
1175 13-08-2019 01:50:00 12.8 C 95 % 12.02 C
Sensor: Nr:Datum:Temp:Feuchte:Taupunkt:
Aussen-T/F 1176 13-08-2019 01:55:00 12.7 C 95 % 11.92 C
1177 13-08-2019 02:00:00 12.7 C 95 % 11.92 C
1178 13-08-2019 02:05:00 12.7 C 95 % 11.92 C
1179 13-08-2019 02:10:00 12.8 C 95 % 12.02 C
1180 13-08-2019 02:15:00 12.8 C 95 % 12.02 C
1181 13-08-2019 02:20:00 12.8 C 95 % 12.02 C
1182 13-08-2019 02:25:00 12.8 C 95 % 12.02 C
1183 13-08-2019 02:30:00 12.8 C 95 % 12.02 C
1184 13-08-2019 02:35:00 12.8 C 95 % 12.02 C
1185 13-08-2019 02:40:00 12.8 C 95 % 12.02 C
1186 13-08-2019 02:45:00 12.9 C 96 % 12.28 C
1187 13-08-2019 02:50:00 13 C 96 % 12.38 C
1188 13-08-2019 02:55:00 13.1 C 96 % 12.48 C
1189 13-08-2019 03:00:00 13.1 C 96 % 12.48 C
1190 13-08-2019 03:05:00 13.1 C 96 % 12.48 C
1191 13-08-2019 03:10:00 13.1 C 96 % 12.48 C
1192 13-08-2019 03:15:00 13 C 96 % 12.38 C
1193 13-08-2019 03:20:00 12.9 C 95 % 12.12 C
1194 13-08-2019 03:25:00 12.8 C 95 % 12.02 C
1195 13-08-2019 03:30:00 12.8 C 95 % 12.02 C
1196 13-08-2019 03:35:00 12.8 C 95 % 12.02 C
1197 13-08-2019 03:40:00 12.8 C 95 % 12.02 C
1198 13-08-2019 03:45:00 12.8 C 96 % 12.18 C
1199 13-08-2019 03:50:00 12.8 C 96 % 12.18 C
1200 13-08-2019 03:55:00 12.8 C 96 % 12.18 C
Sensor: Nr:Datum:Temp:Feuchte:Taupunkt:
Aussen-T/F 1201 13-08-2019 04:00:00 12.8 C 96 % 12.18 C
1202 13-08-2019 04:05:00 12.9 C 96 % 12.28 C
1203 13-08-2019 04:10:00 13 C 96 % 12.38 C
1204 13-08-2019 04:15:00 13.1 C 96 % 12.48 C
1205 13-08-2019 04:20:00 13.2 C 96 % 12.58 C
1206 13-08-2019 04:25:00 13.3 C 96 % 12.68 C
1207 13-08-2019 04:30:00 13.4 C 96 % 12.78 C
1208 13-08-2019 04:35:00 13.5 C 96 % 12.87 C
1209 13-08-2019 04:40:00 13.6 C 96 % 12.97 C
1210 13-08-2019 04:45:00 13.5 C 96 % 12.87 C
1211 13-08-2019 04:50:00 13.5 C 95 % 12.72 C
1212 13-08-2019 04:55:00 13.5 C 95 % 12.72 C
1213 13-08-2019 05:00:00 13.5 C 95 % 12.72 C
1214 13-08-2019 05:05:00 13.4 C 95 % 12.62 C
1215 13-08-2019 05:10:00 13.4 C 95 % 12.62 C
1216 13-08-2019 05:15:00 13.3 C 95 % 12.52 C
1217 13-08-2019 05:20:00 13.2 C 95 % 12.42 C
1218 13-08-2019 05:25:00 13.2 C 95 % 12.42 C
1219 13-08-2019 05:30:00 13.2 C 95 % 12.42 C
1220 13-08-2019 05:35:00 13.1 C 95 % 12.32 C
1221 13-08-2019 05:40:00 13.1 C 95 % 12.32 C
1222 13-08-2019 05:45:00 13 C 95 % 12.22 C
1223 13-08-2019 05:50:00 12.9 C 95 % 12.12 C
1224 13-08-2019 05:55:00 12.9 C 95 % 12.12 C
1225 13-08-2019 06:00:00 12.9 C 95 % 12.12 C
Sensor: Nr:Datum:Temp:Feuchte:Taupunkt:
Aussen-T/F 1226 13-08-2019 06:05:00 12.9 C 95 % 12.12 C
1227 13-08-2019 06:10:00 12.8 C 95 % 12.02 C
1228 13-08-2019 06:15:00 12.8 C 95 % 12.02 C
1229 13-08-2019 06:20:00 12.8 C 95 % 12.02 C
1230 13-08-2019 06:25:00 12.7 C 95 % 11.92 C
1231 13-08-2019 06:30:00 12.7 C 95 % 11.92 C
1232 13-08-2019 06:35:00 12.6 C 95 % 11.82 C
1233 13-08-2019 06:40:00 12.6 C 95 % 11.82 C
1234 13-08-2019 06:45:00 12.7 C 95 % 11.92 C
1235 13-08-2019 06:50:00 12.7 C 96 % 12.08 C
1236 13-08-2019 06:55:00 12.8 C 96 % 12.18 C
1237 13-08-2019 07:00:00 12.8 C 96 % 12.18 C
1238 13-08-2019 07:05:00 12.9 C 96 % 12.28 C
1239 13-08-2019 07:10:00 12.9 C 96 % 12.28 C
1240 13-08-2019 07:15:00 12.9 C 96 % 12.28 C
1241 13-08-2019 07:20:00 12.9 C 96 % 12.28 C
1242 13-08-2019 07:25:00 12.9 C 95 % 12.12 C
1243 13-08-2019 07:30:00 12.9 C 95 % 12.12 C
1244 13-08-2019 07:35:00 12.9 C 95 % 12.12 C
1245 13-08-2019 07:40:00 12.9 C 95 % 12.12 C
1246 13-08-2019 07:45:00 12.9 C 95 % 12.12 C
1247 13-08-2019 07:50:00 12.9 C 94 % 11.96 C
1248 13-08-2019 07:55:00 13 C 94 % 12.06 C
1249 13-08-2019 08:00:00 13 C 94 % 12.06 C
1250 13-08-2019 08:05:00 13.1 C 94 % 12.16 C
Sensor: Nr:Datum:Temp:Feuchte:Taupunkt:
Aussen-T/F 1251 13-08-2019 08:10:00 13.1 C 94 % 12.16 C
1252 13-08-2019 08:15:00 13.2 C 94 % 12.26 C
1253 13-08-2019 08:20:00 13.2 C 93 % 12.09 C
1254 13-08-2019 08:25:00 13.3 C 93 % 12.19 C
1255 13-08-2019 08:30:00 13.3 C 94 % 12.36 C
1256 13-08-2019 08:35:00 13.4 C 93 % 12.29 C
1257 13-08-2019 08:40:00 13.6 C 92 % 12.33 C
1258 13-08-2019 08:45:00 13.7 C 92 % 12.42 C
1259 13-08-2019 08:50:00 13.8 C 90 % 12.19 C
1260 13-08-2019 08:55:00 14 C 90 % 12.39 C
1261 13-08-2019 09:00:00 14.2 C 89 % 12.41 C
1262 13-08-2019 09:05:00 14.3 C 89 % 12.51 C
1263 13-08-2019 09:10:00 14.5 C 89 % 12.71 C
1264 13-08-2019 09:15:00 14.6 C 88 % 12.64 C
1265 13-08-2019 09:20:00 14.7 C 88 % 12.73 C
1266 13-08-2019 09:25:00 14.8 C 88 % 12.83 C
1267 13-08-2019 09:30:00 14.9 C 87 % 12.76 C
1268 13-08-2019 09:35:00 15.1 C 87 % 12.95 C
1269 13-08-2019 09:40:00 15.2 C 86 % 12.88 C
1270 13-08-2019 09:45:00 15.3 C 86 % 12.97 C
1271 13-08-2019 09:50:00 15.3 C 83 % 12.43 C
1272 13-08-2019 09:55:00 15.3 C 82 % 12.25 C
1273 13-08-2019 10:00:00 15.5 C 79 % 11.88 C
1274 13-08-2019 10:05:00 15.8 C 78 % 11.97 C
1275 13-08-2019 10:10:00 15.9 C 76 % 11.68 C
Sensor: Nr:Datum:Temp:Feuchte:Taupunkt:
Aussen-T/F 1276 13-08-2019 10:15:00 16.2 C 76 % 11.97 C
1277 13-08-2019 10:20:00 16.2 C 76 % 11.97 C
1278 13-08-2019 10:25:00 16.3 C 75 % 11.86 C
1279 13-08-2019 10:30:00 16.3 C 75 % 11.86 C
1280 13-08-2019 10:35:00 16.2 C 73 % 11.36 C
1281 13-08-2019 10:40:00 16.3 C 72 % 11.25 C
1282 13-08-2019 10:45:00 16.6 C 73 % 11.74 C
1283 13-08-2019 10:50:00 16.7 C 72 % 11.63 C
1284 13-08-2019 10:55:00 16.7 C 71 % 11.42 C
1285 13-08-2019 11:00:00 16.8 C 70 % 11.3 C
1286 13-08-2019 11:05:00 16.8 C 69 % 11.09 C
1287 13-08-2019 11:10:00 16.8 C 68 % 10.87 C
1288 13-08-2019 11:15:00 16.9 C 69 % 11.18 C
1289 13-08-2019 11:20:00 17.1 C 66 % 10.7 C
1290 13-08-2019 11:25:00 17.1 C 65 % 10.47 C
1291 13-08-2019 11:30:00 17.2 C 68 % 11.25 C
1292 13-08-2019 11:35:00 17.3 C 68 % 11.34 C
1293 13-08-2019 11:40:00 17.3 C 66 % 10.89 C
1294 13-08-2019 11:45:00 17.6 C 68 % 11.63 C
1295 13-08-2019 11:50:00 17.6 C 64 % 10.72 C
1296 13-08-2019 11:55:00 17.6 C 66 % 11.18 C
1297 13-08-2019 12:00:00 17.6 C 66 % 11.18 C
1298 13-08-2019 12:05:00 17.7 C 66 % 11.27 C
1299 13-08-2019 12:10:00 17.9 C 64 % 11 C
1300 13-08-2019 12:15:00 18.2 C 62 % 10.81 C
Sensor: Nr:Datum:Temp:Feuchte:Taupunkt:
Aussen-T/F 1301 13-08-2019 12:20:00 18.3 C 62 % 10.9 C
1302 13-08-2019 12:25:00 18.3 C 61 % 10.66 C
1303 13-08-2019 12:30:00 18.2 C 66 % 11.75 C
1304 13-08-2019 12:35:00 17.9 C 64 % 11 C
1305 13-08-2019 12:40:00 18.1 C 63 % 10.95 C
1306 13-08-2019 12:45:00 18.3 C 62 % 10.9 C
1307 13-08-2019 12:50:00 18.5 C 63 % 11.33 C
1308 13-08-2019 12:55:00 18.6 C 62 % 11.18 C
1309 13-08-2019 13:00:00 18.6 C 60 % 10.69 C
1310 13-08-2019 13:05:00 18.7 C 61 % 11.03 C
1311 13-08-2019 13:10:00 18.8 C 58 % 10.37 C
1312 13-08-2019 13:15:00 18.9 C 56 % 9.94 C
1313 13-08-2019 13:20:00 18.9 C 58 % 10.46 C
1314 13-08-2019 13:25:00 19 C 57 % 10.3 C
1315 13-08-2019 13:30:00 19 C 54 % 9.49 C
1316 13-08-2019 13:35:00 18.9 C 55 % 9.67 C
1317 13-08-2019 13:40:00 19.1 C 51 % 8.73 C
1318 13-08-2019 13:45:00 19.3 C 54 % 9.77 C
1319 13-08-2019 13:50:00 19.4 C 54 % 9.86 C
1320 13-08-2019 13:55:00 19.7 C 50 % 8.99 C
1321 13-08-2019 14:00:00 19.8 C 50 % 9.09 C
1322 13-08-2019 14:05:00 19.9 C 52 % 9.76 C
1323 13-08-2019 14:10:00 19.9 C 52 % 9.76 C
1324 13-08-2019 14:15:00 19.8 C 52 % 9.67 C
1325 13-08-2019 14:20:00 19.7 C 54 % 10.14 C
Sensor: Nr:Datum:Temp:Feuchte:Taupunkt:
Aussen-T/F 1326 13-08-2019 14:25:00 19.5 C 56 % 10.5 C
1327 13-08-2019 14:30:00 19.6 C 55 % 10.32 C
1328 13-08-2019 14:35:00 19.7 C 51 % 9.29 C
1329 13-08-2019 14:40:00 19.9 C 57 % 11.14 C
1330 13-08-2019 14:45:00 20.2 C 53 % 10.32 C
1331 13-08-2019 14:50:00 20.3 C 51 % 9.84 C
1332 13-08-2019 14:55:00 20.2 C 51 % 9.75 C
1333 13-08-2019 15:00:00 20.3 C 52 % 10.13 C
1334 13-08-2019 15:05:00 20.6 C 53 % 10.69 C
1335 13-08-2019 15:10:00 20.9 C 51 % 10.39 C
1336 13-08-2019 15:15:00 21 C 51 % 10.48 C
1337 13-08-2019 15:20:00 21.2 C 49 % 10.07 C
1338 13-08-2019 15:25:00 21.5 C 51 % 10.94 C
1339 13-08-2019 15:30:00 21.7 C 49 % 10.53 C
1340 13-08-2019 15:35:00 21.5 C 49 % 10.34 C
1341 13-08-2019 15:40:00 21.6 C 49 % 10.44 C
1342 13-08-2019 15:45:00 21.7 C 51 % 11.13 C
1343 13-08-2019 15:50:00 21.7 C 49 % 10.53 C
1344 13-08-2019 15:55:00 21.6 C 50 % 10.74 C
1345 13-08-2019 16:00:00 21.5 C 50 % 10.65 C
1346 13-08-2019 16:05:00 21.6 C 52 % 11.33 C
1347 13-08-2019 16:10:00 21.4 C 50 % 10.55 C
1348 13-08-2019 16:15:00 21.2 C 52 % 10.96 C
1349 13-08-2019 16:20:00 20.9 C 51 % 10.39 C
1350 13-08-2019 16:25:00 20.8 C 55 % 11.43 C
Sensor: Nr:Datum:Temp:Feuchte:Taupunkt:
Aussen-T/F 1351 13-08-2019 16:30:00 21.1 C 51 % 10.58 C
1352 13-08-2019 16:35:00 21.3 C 52 % 11.05 C
1353 13-08-2019 16:40:00 21.2 C 52 % 10.96 C
1354 13-08-2019 16:45:00 21.5 C 51 % 10.94 C
1355 13-08-2019 16:50:00 21.9 C 48 % 10.4 C
1356 13-08-2019 16:55:00 22.2 C 47 % 10.36 C
1357 13-08-2019 17:00:00 22.3 C 47 % 10.45 C
1358 13-08-2019 17:05:00 22.4 C 45 % 9.89 C
1359 13-08-2019 17:10:00 22.2 C 46 % 10.04 C
1360 13-08-2019 17:15:00 21.6 C 49 % 10.44 C
1361 13-08-2019 17:20:00 21.1 C 51 % 10.58 C
1362 13-08-2019 17:25:00 20.8 C 53 % 10.88 C
1363 13-08-2019 17:30:00 20.7 C 51 % 10.21 C
1364 13-08-2019 17:35:00 20.7 C 54 % 11.07 C
1365 13-08-2019 17:40:00 20.9 C 53 % 10.97 C
1366 13-08-2019 17:45:00 20.9 C 52 % 10.68 C
1367 13-08-2019 17:50:00 20.8 C 53 % 10.88 C
1368 13-08-2019 17:55:00 20.7 C 52 % 10.5 C
1369 13-08-2019 18:00:00 20.7 C 55 % 11.34 C
1370 13-08-2019 18:05:00 20.7 C 53 % 10.78 C
1371 13-08-2019 18:10:00 20.7 C 52 % 10.5 C
1372 13-08-2019 18:15:00 21.2 C 54 % 11.53 C
1373 13-08-2019 18:20:00 21.6 C 50 % 10.74 C
1374 13-08-2019 18:25:00 21.8 C 49 % 10.62 C
1375 13-08-2019 18:30:00 21.9 C 48 % 10.4 C
Sensor: Nr:Datum:Temp:Feuchte:Taupunkt:
Aussen-T/F 1376 13-08-2019 18:35:00 21.7 C 51 % 11.13 C
1377 13-08-2019 18:40:00 21.4 C 50 % 10.55 C
1378 13-08-2019 18:45:00 21.1 C 52 % 10.87 C
1379 13-08-2019 18:50:00 20.8 C 54 % 11.16 C
1380 13-08-2019 18:55:00 20.5 C 54 % 10.88 C
1381 13-08-2019 19:00:00 20.3 C 57 % 11.51 C
1382 13-08-2019 19:05:00 20.1 C 59 % 11.84 C
1383 13-08-2019 19:10:00 19.9 C 60 % 11.91 C
1384 13-08-2019 19:15:00 19.8 C 57 % 11.04 C
1385 13-08-2019 19:20:00 19.6 C 59 % 11.37 C
1386 13-08-2019 19:25:00 19.3 C 59 % 11.09 C
1387 13-08-2019 19:30:00 18.5 C 62 % 11.09 C
1388 13-08-2019 19:35:00 17.9 C 67 % 11.69 C
1389 13-08-2019 19:40:00 17.3 C 72 % 12.21 C
1390 13-08-2019 19:45:00 16.9 C 72 % 11.82 C
1391 13-08-2019 19:50:00 16.6 C 75 % 12.15 C
1392 13-08-2019 19:55:00 16.2 C 78 % 12.36 C
1393 13-08-2019 20:00:00 15.9 C 81 % 12.65 C
1394 13-08-2019 20:05:00 15.6 C 82 % 12.54 C
1395 13-08-2019 20:10:00 15.4 C 84 % 12.71 C
1396 13-08-2019 20:15:00 15.2 C 85 % 12.7 C
1397 13-08-2019 20:20:00 15 C 86 % 12.68 C
1398 13-08-2019 20:25:00 14.8 C 87 % 12.66 C
1399 13-08-2019 20:30:00 14.7 C 88 % 12.73 C
1400 13-08-2019 20:35:00 14.6 C 88 % 12.64 C
Sensor: Nr:Datum:Temp:Feuchte:Taupunkt:
Aussen-T/F 1401 13-08-2019 20:40:00 14.6 C 89 % 12.81 C
1402 13-08-2019 20:45:00 14.5 C 90 % 12.88 C
1403 13-08-2019 20:50:00 14.4 C 90 % 12.78 C
1404 13-08-2019 20:55:00 14.3 C 90 % 12.68 C
1405 13-08-2019 21:00:00 14.3 C 90 % 12.68 C
1406 13-08-2019 21:05:00 14.2 C 91 % 12.75 C
1407 13-08-2019 21:10:00 14.2 C 91 % 12.75 C
1408 13-08-2019 21:15:00 14.2 C 91 % 12.75 C
1409 13-08-2019 21:20:00 14.1 C 91 % 12.65 C
1410 13-08-2019 21:25:00 14 C 91 % 12.56 C
1411 13-08-2019 21:30:00 13.9 C 91 % 12.46 C
1412 13-08-2019 21:35:00 13.9 C 92 % 12.62 C
1413 13-08-2019 21:40:00 13.8 C 92 % 12.52 C
1414 13-08-2019 21:45:00 13.8 C 92 % 12.52 C
1415 13-08-2019 21:50:00 13.8 C 92 % 12.52 C
1416 13-08-2019 21:55:00 13.7 C 92 % 12.42 C
1417 13-08-2019 22:00:00 13.7 C 92 % 12.42 C
1418 13-08-2019 22:05:00 13.7 C 92 % 12.42 C
1419 13-08-2019 22:10:00 13.7 C 92 % 12.42 C
1420 13-08-2019 22:15:00 13.7 C 92 % 12.42 C
1421 13-08-2019 22:20:00 13.6 C 92 % 12.33 C
1422 13-08-2019 22:25:00 13.6 C 93 % 12.49 C
1423 13-08-2019 22:30:00 13.6 C 93 % 12.49 C
1424 13-08-2019 22:35:00 13.6 C 93 % 12.49 C
1425 13-08-2019 22:40:00 13.6 C 93 % 12.49 C
Sensor: Nr:Datum:Temp:Feuchte:Taupunkt:
Aussen-T/F 1426 13-08-2019 22:45:00 13.6 C 93 % 12.49 C
1427 13-08-2019 22:50:00 13.6 C 93 % 12.49 C
1428 13-08-2019 22:55:00 13.6 C 93 % 12.49 C
1429 13-08-2019 23:00:00 13.5 C 93 % 12.39 C
1430 13-08-2019 23:05:00 13.5 C 93 % 12.39 C
1431 13-08-2019 23:10:00 13.4 C 93 % 12.29 C
1432 13-08-2019 23:15:00 13.4 C 93 % 12.29 C
1433 13-08-2019 23:20:00 13.4 C 93 % 12.29 C
1434 13-08-2019 23:25:00 13.4 C 93 % 12.29 C
1435 13-08-2019 23:30:00 13.3 C 93 % 12.19 C
1436 13-08-2019 23:35:00 13.3 C 93 % 12.19 C
1437 13-08-2019 23:40:00 13.3 C 93 % 12.19 C
1438 13-08-2019 23:45:00 13.3 C 93 % 12.19 C
1439 13-08-2019 23:50:00 13.3 C 93 % 12.19 C
1440 13-08-2019 23:55:00 13.3 C 93 % 12.19 C

Legende:
   Min
   Max


Maximal/Minimal-Werte vom 09.08.2019 - 13.08.2019

Sensor Min Max Avg
Temp
(Aussen-T/F)
12.5 °C
12-08-2019  05:50:00
27.6 °C
09-08-2019  16:10:00
17.98 °C
Feuchte
(Aussen-T/F)
45 %
13-08-2019  17:05:00
97 %
10-08-2019  00:25:00
81.63 %
Taupunkt
(Aussen-T/F)
8.73 C
13-08-2019  13:40:00
22.73 C
09-08-2019  17:00:00
14.42 C

Die Daten stammen von einer Davis Vantage Pro 2 Wetter-Station und werden unter Linux mit der Software wview2wettercgi und aufbereitet. Alle Angaben erfolgen ohne Gewähr für ihre Vollständigkeit oder Richtigkeit.
Kontakt: Rainer Krienke krienke@uni-koblenz.de . Meine Webseiten an der Uni Koblenz oder privat.
Version: $Revision: 0.78 $